<?xml version="1.0" encoding="UTF-8" standalone="no" ?>
<gpx xmlns="http://www.topografix.com/GPX/1/1" xmlns:xsi="http://www.w3.org/2001/XMLSchema-instance" xsi:schemaLocation="http://www.topografix.com/GPX/1/1 http://www.topografix.com/GPX/1/1/gpx.xsd" version="1.1" creator="VisuGPX - https://www.visugpx.com">
  <metadata>
    <name>J2 Méouge -&amp;gt; Jabron</name>
  </metadata>
  <trk>
    <name><![CDATA[J2 Méouge -> Jabron]]></name>
    <extensions>
      <line xmlns="http://www.topografix.com/GPX/gpx_style/0/2">
        <color>0000FF</color>
        <width>4</width>
      </line>
    </extensions>
    <trkseg>
      <trkpt lat="44.26255" lon="5.73378">
        <ele>651.7</ele>
        <time>2021-05-28T06:30:25.000Z</time>
      </trkpt>
      <trkpt lat="44.26243" lon="5.73392">
        <ele>650.5</ele>
        <time>2021-05-28T06:30:26.742Z</time>
      </trkpt>
      <trkpt lat="44.26209" lon="5.73426">
        <ele>648.2</ele>
        <time>2021-05-28T06:30:31.425Z</time>
      </trkpt>
      <trkpt lat="44.26195" lon="5.7345">
        <ele>648.3</ele>
        <time>2021-05-28T06:30:37.854Z</time>
      </trkpt>
      <trkpt lat="44.26168" lon="5.73504">
        <ele>649.9</ele>
        <time>2021-05-28T06:30:56.880Z</time>
      </trkpt>
      <trkpt lat="44.26156" lon="5.73561">
        <ele>647.5</ele>
        <time>2021-05-28T06:31:01.589Z</time>
      </trkpt>
      <trkpt lat="44.26151" lon="5.73591">
        <ele>646.3</ele>
        <time>2021-05-28T06:31:04.071Z</time>
      </trkpt>
      <trkpt lat="44.26139" lon="5.73647">
        <ele>642.9</ele>
        <time>2021-05-28T06:31:08.735Z</time>
      </trkpt>
      <trkpt lat="44.26125" lon="5.73669">
        <ele>641.5</ele>
        <time>2021-05-28T06:31:10.890Z</time>
      </trkpt>
      <trkpt lat="44.26107" lon="5.73678">
        <ele>640.7</ele>
        <time>2021-05-28T06:31:13.294Z</time>
      </trkpt>
      <trkpt lat="44.26068" lon="5.73746">
        <ele>638.1</ele>
        <time>2021-05-28T06:31:21.150Z</time>
      </trkpt>
      <trkpt lat="44.26017" lon="5.73793">
        <ele>635.8</ele>
        <time>2021-05-28T06:31:29.146Z</time>
      </trkpt>
      <trkpt lat="44.25998" lon="5.73794">
        <ele>635</ele>
        <time>2021-05-28T06:31:31.531Z</time>
      </trkpt>
      <trkpt lat="44.25979" lon="5.73776">
        <ele>634.5</ele>
        <time>2021-05-28T06:31:35.083Z</time>
      </trkpt>
      <trkpt lat="44.25966" lon="5.73751">
        <ele>634</ele>
        <time>2021-05-28T06:31:38.474Z</time>
      </trkpt>
      <trkpt lat="44.25907" lon="5.73624">
        <ele>635.1</ele>
        <time>2021-05-28T06:32:11.707Z</time>
      </trkpt>
      <trkpt lat="44.25879" lon="5.73588">
        <ele>637.8</ele>
        <time>2021-05-28T06:32:33.154Z</time>
      </trkpt>
      <trkpt lat="44.25856" lon="5.73592">
        <ele>640.6</ele>
        <time>2021-05-28T06:32:54.174Z</time>
      </trkpt>
      <trkpt lat="44.25837" lon="5.73584">
        <ele>641.7</ele>
        <time>2021-05-28T06:33:04.178Z</time>
      </trkpt>
      <trkpt lat="44.25812" lon="5.73588">
        <ele>646.1</ele>
        <time>2021-05-28T06:33:31.165Z</time>
      </trkpt>
      <trkpt lat="44.25776" lon="5.73601">
        <ele>653.6</ele>
        <time>2021-05-28T06:34:11.043Z</time>
      </trkpt>
      <trkpt lat="44.25745" lon="5.73621">
        <ele>661</ele>
        <time>2021-05-28T06:34:47.666Z</time>
      </trkpt>
      <trkpt lat="44.25749" lon="5.73577">
        <ele>656.9</ele>
        <time>2021-05-28T06:34:51.205Z</time>
      </trkpt>
      <trkpt lat="44.25777" lon="5.73558">
        <ele>652.7</ele>
        <time>2021-05-28T06:34:54.674Z</time>
      </trkpt>
      <trkpt lat="44.25795" lon="5.73522">
        <ele>649.6</ele>
        <time>2021-05-28T06:34:58.177Z</time>
      </trkpt>
      <trkpt lat="44.25785" lon="5.73487">
        <ele>652.9</ele>
        <time>2021-05-28T06:35:23.101Z</time>
      </trkpt>
      <trkpt lat="44.25772" lon="5.73506">
        <ele>656.8</ele>
        <time>2021-05-28T06:35:43.284Z</time>
      </trkpt>
      <trkpt lat="44.25738" lon="5.73496">
        <ele>666.6</ele>
        <time>2021-05-28T06:36:20.547Z</time>
      </trkpt>
      <trkpt lat="44.25709" lon="5.73443">
        <ele>671.6</ele>
        <time>2021-05-28T06:36:56.733Z</time>
      </trkpt>
      <trkpt lat="44.25688" lon="5.73394">
        <ele>673.2</ele>
        <time>2021-05-28T06:37:14.455Z</time>
      </trkpt>
      <trkpt lat="44.25661" lon="5.73379">
        <ele>677.4</ele>
        <time>2021-05-28T06:37:45.619Z</time>
      </trkpt>
      <trkpt lat="44.25634" lon="5.73396">
        <ele>683.5</ele>
        <time>2021-05-28T06:38:17.383Z</time>
      </trkpt>
      <trkpt lat="44.25628" lon="5.73455">
        <ele>687.6</ele>
        <time>2021-05-28T06:38:47.103Z</time>
      </trkpt>
      <trkpt lat="44.25588" lon="5.73575">
        <ele>697.7</ele>
        <time>2021-05-28T06:40:00.313Z</time>
      </trkpt>
      <trkpt lat="44.25437" lon="5.73723">
        <ele>712.3</ele>
        <time>2021-05-28T06:41:51.171Z</time>
      </trkpt>
      <trkpt lat="44.25431" lon="5.73645">
        <ele>719.9</ele>
        <time>2021-05-28T06:42:51.430Z</time>
      </trkpt>
      <trkpt lat="44.25409" lon="5.73551">
        <ele>728.5</ele>
        <time>2021-05-28T06:43:56.151Z</time>
      </trkpt>
      <trkpt lat="44.25363" lon="5.7347">
        <ele>743.2</ele>
        <time>2021-05-28T06:45:15.554Z</time>
      </trkpt>
      <trkpt lat="44.25318" lon="5.73387">
        <ele>756</ele>
        <time>2021-05-28T06:46:35.516Z</time>
      </trkpt>
      <trkpt lat="44.25314" lon="5.73264">
        <ele>757.9</ele>
        <time>2021-05-28T06:47:06.066Z</time>
      </trkpt>
      <trkpt lat="44.25256" lon="5.73193">
        <ele>764.3</ele>
        <time>2021-05-28T06:47:53.901Z</time>
      </trkpt>
      <trkpt lat="44.25214" lon="5.7314">
        <ele>770.8</ele>
        <time>2021-05-28T06:48:41.740Z</time>
      </trkpt>
      <trkpt lat="44.25172" lon="5.73092">
        <ele>775.2</ele>
        <time>2021-05-28T06:49:14.872Z</time>
      </trkpt>
      <trkpt lat="44.25134" lon="5.73072">
        <ele>776.4</ele>
        <time>2021-05-28T06:49:30.354Z</time>
      </trkpt>
      <trkpt lat="44.25103" lon="5.73128">
        <ele>786.4</ele>
        <time>2021-05-28T06:50:24.721Z</time>
      </trkpt>
      <trkpt lat="44.25061" lon="5.73154">
        <ele>793.7</ele>
        <time>2021-05-28T06:51:13.994Z</time>
      </trkpt>
      <trkpt lat="44.25054" lon="5.73099">
        <ele>787</ele>
        <time>2021-05-28T06:51:18.452Z</time>
      </trkpt>
      <trkpt lat="44.25036" lon="5.73113">
        <ele>790.7</ele>
        <time>2021-05-28T06:51:40.549Z</time>
      </trkpt>
      <trkpt lat="44.25035" lon="5.73172">
        <ele>798.9</ele>
        <time>2021-05-28T06:52:25.885Z</time>
      </trkpt>
      <trkpt lat="44.2501" lon="5.73226">
        <ele>807.7</ele>
        <time>2021-05-28T06:53:15.278Z</time>
      </trkpt>
      <trkpt lat="44.24986" lon="5.73361">
        <ele>819.3</ele>
        <time>2021-05-28T06:54:41.046Z</time>
      </trkpt>
      <trkpt lat="44.24904" lon="5.734">
        <ele>828.6</ele>
        <time>2021-05-28T06:55:48.518Z</time>
      </trkpt>
      <trkpt lat="44.24913" lon="5.73484">
        <ele>839.1</ele>
        <time>2021-05-28T06:56:53.765Z</time>
      </trkpt>
      <trkpt lat="44.24889" lon="5.73603">
        <ele>851.9</ele>
        <time>2021-05-28T06:58:28.736Z</time>
      </trkpt>
      <trkpt lat="44.24878" lon="5.73707">
        <ele>860.2</ele>
        <time>2021-05-28T06:59:29.206Z</time>
      </trkpt>
      <trkpt lat="44.24885" lon="5.73767">
        <ele>863.7</ele>
        <time>2021-05-28T06:59:55.637Z</time>
      </trkpt>
      <trkpt lat="44.24891" lon="5.73826">
        <ele>868.9</ele>
        <time>2021-05-28T07:00:34.835Z</time>
      </trkpt>
      <trkpt lat="44.24854" lon="5.73814">
        <ele>874.1</ele>
        <time>2021-05-28T07:01:15.572Z</time>
      </trkpt>
      <trkpt lat="44.24802" lon="5.7379">
        <ele>878.5</ele>
        <time>2021-05-28T07:01:48.805Z</time>
      </trkpt>
      <trkpt lat="44.24752" lon="5.7383">
        <ele>890.3</ele>
        <time>2021-05-28T07:02:50.608Z</time>
      </trkpt>
      <trkpt lat="44.24704" lon="5.73855">
        <ele>896.2</ele>
        <time>2021-05-28T07:03:34.073Z</time>
      </trkpt>
      <trkpt lat="44.24634" lon="5.73853">
        <ele>897.9</ele>
        <time>2021-05-28T07:03:59.108Z</time>
      </trkpt>
      <trkpt lat="44.24565" lon="5.73917">
        <ele>909.2</ele>
        <time>2021-05-28T07:05:27.952Z</time>
      </trkpt>
      <trkpt lat="44.24511" lon="5.74004">
        <ele>921.9</ele>
        <time>2021-05-28T07:06:56.389Z</time>
      </trkpt>
      <trkpt lat="44.24471" lon="5.7402">
        <ele>923.1</ele>
        <time>2021-05-28T07:07:12.111Z</time>
      </trkpt>
      <trkpt lat="44.24412" lon="5.74077">
        <ele>928.8</ele>
        <time>2021-05-28T07:07:55.332Z</time>
      </trkpt>
      <trkpt lat="44.24368" lon="5.74115">
        <ele>930.2</ele>
        <time>2021-05-28T07:08:14.458Z</time>
      </trkpt>
      <trkpt lat="44.24343" lon="5.74176">
        <ele>939.7</ele>
        <time>2021-05-28T07:09:08.451Z</time>
      </trkpt>
      <trkpt lat="44.24281" lon="5.74297">
        <ele>957.8</ele>
        <time>2021-05-28T07:11:02.745Z</time>
      </trkpt>
      <trkpt lat="44.24223" lon="5.74387">
        <ele>972</ele>
        <time>2021-05-28T07:12:35.751Z</time>
      </trkpt>
      <trkpt lat="44.24195" lon="5.7438">
        <ele>972.8</ele>
        <time>2021-05-28T07:12:46.405Z</time>
      </trkpt>
      <trkpt lat="44.24156" lon="5.74387">
        <ele>978.4</ele>
        <time>2021-05-28T07:13:28.574Z</time>
      </trkpt>
      <trkpt lat="44.24121" lon="5.74367">
        <ele>982</ele>
        <time>2021-05-28T07:13:54.695Z</time>
      </trkpt>
      <trkpt lat="44.24065" lon="5.74397">
        <ele>997.8</ele>
        <time>2021-05-28T07:14:59.023Z</time>
      </trkpt>
      <trkpt lat="44.24017" lon="5.74374">
        <ele>1001.5</ele>
        <time>2021-05-28T07:15:28.053Z</time>
      </trkpt>
      <trkpt lat="44.23979" lon="5.74308">
        <ele>999.3</ele>
        <time>2021-05-28T07:15:36.098Z</time>
      </trkpt>
      <trkpt lat="44.24006" lon="5.74262">
        <ele>996.5</ele>
        <time>2021-05-28T07:15:40.478Z</time>
      </trkpt>
      <trkpt lat="44.23994" lon="5.74192">
        <ele>997.7</ele>
        <time>2021-05-28T07:15:58.699Z</time>
      </trkpt>
      <trkpt lat="44.23938" lon="5.74219">
        <ele>1008.9</ele>
        <time>2021-05-28T07:17:02.238Z</time>
      </trkpt>
      <trkpt lat="44.23813" lon="5.74192">
        <ele>1033.7</ele>
        <time>2021-05-28T07:19:17.889Z</time>
      </trkpt>
      <trkpt lat="44.23825" lon="5.74074">
        <ele>1038.5</ele>
        <time>2021-05-28T07:20:01.164Z</time>
      </trkpt>
      <trkpt lat="44.23784" lon="5.73983">
        <ele>1052.1</ele>
        <time>2021-05-28T07:21:23.761Z</time>
      </trkpt>
      <trkpt lat="44.23767" lon="5.74082">
        <ele>1052</ele>
        <time>2021-05-28T07:21:43.623Z</time>
      </trkpt>
      <trkpt lat="44.23682" lon="5.74126">
        <ele>1070.3</ele>
        <time>2021-05-28T07:23:20.848Z</time>
      </trkpt>
      <trkpt lat="44.23642" lon="5.74199">
        <ele>1078.1</ele>
        <time>2021-05-28T07:24:18.900Z</time>
      </trkpt>
      <trkpt lat="44.23614" lon="5.7438">
        <ele>1085.4</ele>
        <time>2021-05-28T07:25:25.595Z</time>
      </trkpt>
      <trkpt lat="44.23547" lon="5.74558">
        <ele>1106.5</ele>
        <time>2021-05-28T07:28:00.092Z</time>
      </trkpt>
      <trkpt lat="44.23441" lon="5.74654">
        <ele>1138.2</ele>
        <time>2021-05-28T07:30:15.607Z</time>
      </trkpt>
      <trkpt lat="44.23364" lon="5.74761">
        <ele>1166.4</ele>
        <time>2021-05-28T07:32:12.136Z</time>
      </trkpt>
      <trkpt lat="44.23332" lon="5.74936">
        <ele>1192.6</ele>
        <time>2021-05-28T07:34:30.918Z</time>
      </trkpt>
      <trkpt lat="44.23288" lon="5.74907">
        <ele>1191.6</ele>
        <time>2021-05-28T07:34:38.553Z</time>
      </trkpt>
      <trkpt lat="44.23221" lon="5.74907">
        <ele>1201.8</ele>
        <time>2021-05-28T07:35:50.407Z</time>
      </trkpt>
      <trkpt lat="44.23175" lon="5.74889">
        <ele>1211.2</ele>
        <time>2021-05-28T07:36:41.642Z</time>
      </trkpt>
      <trkpt lat="44.23129" lon="5.74901">
        <ele>1218.7</ele>
        <time>2021-05-28T07:37:31.829Z</time>
      </trkpt>
      <trkpt lat="44.23145" lon="5.74944">
        <ele>1214</ele>
        <time>2021-05-28T07:37:35.697Z</time>
      </trkpt>
      <trkpt lat="44.231" lon="5.74986">
        <ele>1221.2</ele>
        <time>2021-05-28T07:38:33.392Z</time>
      </trkpt>
      <trkpt lat="44.23029" lon="5.75072">
        <ele>1232.8</ele>
        <time>2021-05-28T07:40:01.432Z</time>
      </trkpt>
      <trkpt lat="44.23004" lon="5.7514">
        <ele>1229.5</ele>
        <time>2021-05-28T07:40:07.306Z</time>
      </trkpt>
      <trkpt lat="44.22952" lon="5.75137">
        <ele>1237.7</ele>
        <time>2021-05-28T07:41:03.121Z</time>
      </trkpt>
      <trkpt lat="44.22886" lon="5.75125">
        <ele>1254.6</ele>
        <time>2021-05-28T07:42:14.501Z</time>
      </trkpt>
      <trkpt lat="44.22893" lon="5.75201">
        <ele>1256.3</ele>
        <time>2021-05-28T07:42:35.810Z</time>
      </trkpt>
      <trkpt lat="44.22931" lon="5.75381">
        <ele>1267.1</ele>
        <time>2021-05-28T07:43:57.388Z</time>
      </trkpt>
      <trkpt lat="44.22967" lon="5.75488">
        <ele>1279</ele>
        <time>2021-05-28T07:45:28.226Z</time>
      </trkpt>
      <trkpt lat="44.22991" lon="5.7553">
        <ele>1280.6</ele>
        <time>2021-05-28T07:45:45.509Z</time>
      </trkpt>
      <trkpt lat="44.23053" lon="5.75547">
        <ele>1285.8</ele>
        <time>2021-05-28T07:46:24.473Z</time>
      </trkpt>
      <trkpt lat="44.23117" lon="5.75602">
        <ele>1302.9</ele>
        <time>2021-05-28T07:47:45.079Z</time>
      </trkpt>
      <trkpt lat="44.23138" lon="5.75514">
        <ele>1301.1</ele>
        <time>2021-05-28T07:47:54.769Z</time>
      </trkpt>
      <trkpt lat="44.23151" lon="5.75408">
        <ele>1301.2</ele>
        <time>2021-05-28T07:48:16.452Z</time>
      </trkpt>
      <trkpt lat="44.23182" lon="5.75345">
        <ele>1305.5</ele>
        <time>2021-05-28T07:48:49.194Z</time>
      </trkpt>
      <trkpt lat="44.23189" lon="5.75399">
        <ele>1313.3</ele>
        <time>2021-05-28T07:49:31.363Z</time>
      </trkpt>
      <trkpt lat="44.23214" lon="5.75424">
        <ele>1324.6</ele>
        <time>2021-05-28T07:50:04.346Z</time>
      </trkpt>
      <trkpt lat="44.23249" lon="5.75358">
        <ele>1330.3</ele>
        <time>2021-05-28T07:50:45.632Z</time>
      </trkpt>
      <trkpt lat="44.23244" lon="5.75465">
        <ele>1339.8</ele>
        <time>2021-05-28T07:51:57.819Z</time>
      </trkpt>
      <trkpt lat="44.23221" lon="5.75509">
        <ele>1334</ele>
        <time>2021-05-28T07:52:02.167Z</time>
      </trkpt>
      <trkpt lat="44.23233" lon="5.75671">
        <ele>1350.6</ele>
        <time>2021-05-28T07:54:07.315Z</time>
      </trkpt>
      <trkpt lat="44.23228" lon="5.75804">
        <ele>1360.6</ele>
        <time>2021-05-28T07:55:19.693Z</time>
      </trkpt>
      <trkpt lat="44.23205" lon="5.75882">
        <ele>1359.3</ele>
        <time>2021-05-28T07:55:29.071Z</time>
      </trkpt>
      <trkpt lat="44.23115" lon="5.75978">
        <ele>1358.5</ele>
        <time>2021-05-28T07:55:57.492Z</time>
      </trkpt>
      <trkpt lat="44.22974" lon="5.75786">
        <ele>1352.4</ele>
        <time>2021-05-28T07:56:25.058Z</time>
      </trkpt>
      <trkpt lat="44.22923" lon="5.75755">
        <ele>1356</ele>
        <time>2021-05-28T07:56:54.988Z</time>
      </trkpt>
      <trkpt lat="44.22977" lon="5.75859">
        <ele>1370.3</ele>
        <time>2021-05-28T07:58:33.685Z</time>
      </trkpt>
      <trkpt lat="44.23003" lon="5.75975">
        <ele>1388.4</ele>
        <time>2021-05-28T08:00:07.085Z</time>
      </trkpt>
      <trkpt lat="44.23" lon="5.76099">
        <ele>1404.1</ele>
        <time>2021-05-28T08:01:42.428Z</time>
      </trkpt>
      <trkpt lat="44.22997" lon="5.76175">
        <ele>1408.7</ele>
        <time>2021-05-28T08:02:16.642Z</time>
      </trkpt>
      <trkpt lat="44.22957" lon="5.7618">
        <ele>1405.1</ele>
        <time>2021-05-28T08:02:21.116Z</time>
      </trkpt>
      <trkpt lat="44.22874" lon="5.75984">
        <ele>1418.6</ele>
        <time>2021-05-28T08:04:02.100Z</time>
      </trkpt>
      <trkpt lat="44.22786" lon="5.75801">
        <ele>1391.5</ele>
        <time>2021-05-28T08:04:19.694Z</time>
      </trkpt>
      <trkpt lat="44.22728" lon="5.75671">
        <ele>1398.9</ele>
        <time>2021-05-28T08:05:19.925Z</time>
      </trkpt>
      <trkpt lat="44.22625" lon="5.75536">
        <ele>1422.6</ele>
        <time>2021-05-28T08:07:51.468Z</time>
      </trkpt>
      <trkpt lat="44.22537" lon="5.75378">
        <ele>1454.9</ele>
        <time>2021-05-28T08:10:25.255Z</time>
      </trkpt>
      <trkpt lat="44.22435" lon="5.75344">
        <ele>1477.7</ele>
        <time>2021-05-28T08:12:17.722Z</time>
      </trkpt>
      <trkpt lat="44.2239" lon="5.75188">
        <ele>1471.6</ele>
        <time>2021-05-28T08:12:31.725Z</time>
      </trkpt>
      <trkpt lat="44.22353" lon="5.74948">
        <ele>1471</ele>
        <time>2021-05-28T08:13:18.210Z</time>
      </trkpt>
      <trkpt lat="44.22339" lon="5.74713">
        <ele>1465.4</ele>
        <time>2021-05-28T08:13:41.334Z</time>
      </trkpt>
      <trkpt lat="44.22289" lon="5.74726">
        <ele>1454.8</ele>
        <time>2021-05-28T08:13:47.001Z</time>
      </trkpt>
      <trkpt lat="44.22255" lon="5.74754">
        <ele>1449.7</ele>
        <time>2021-05-28T08:13:51.399Z</time>
      </trkpt>
      <trkpt lat="44.22228" lon="5.74812">
        <ele>1448.1</ele>
        <time>2021-05-28T08:13:58.242Z</time>
      </trkpt>
      <trkpt lat="44.22226" lon="5.7489">
        <ele>1448.9</ele>
        <time>2021-05-28T08:14:16.138Z</time>
      </trkpt>
      <trkpt lat="44.22237" lon="5.74976">
        <ele>1447.5</ele>
        <time>2021-05-28T08:14:25.758Z</time>
      </trkpt>
      <trkpt lat="44.22255" lon="5.7506">
        <ele>1445</ele>
        <time>2021-05-28T08:14:33.812Z</time>
      </trkpt>
      <trkpt lat="44.22268" lon="5.75125">
        <ele>1447.4</ele>
        <time>2021-05-28T08:14:57.266Z</time>
      </trkpt>
      <trkpt lat="44.22257" lon="5.75209">
        <ele>1447.3</ele>
        <time>2021-05-28T08:15:13.865Z</time>
      </trkpt>
      <trkpt lat="44.22246" lon="5.75253">
        <ele>1448.1</ele>
        <time>2021-05-28T08:15:25.761Z</time>
      </trkpt>
      <trkpt lat="44.2219" lon="5.75245">
        <ele>1443.7</ele>
        <time>2021-05-28T08:15:32.033Z</time>
      </trkpt>
      <trkpt lat="44.22147" lon="5.7523">
        <ele>1439</ele>
        <time>2021-05-28T08:15:36.971Z</time>
      </trkpt>
      <trkpt lat="44.22117" lon="5.75206">
        <ele>1433.5</ele>
        <time>2021-05-28T08:15:40.823Z</time>
      </trkpt>
      <trkpt lat="44.22072" lon="5.7519">
        <ele>1428.4</ele>
        <time>2021-05-28T08:15:45.997Z</time>
      </trkpt>
      <trkpt lat="44.2203" lon="5.75209">
        <ele>1429.7</ele>
        <time>2021-05-28T08:16:02.807Z</time>
      </trkpt>
      <trkpt lat="44.22011" lon="5.75232">
        <ele>1431.7</ele>
        <time>2021-05-28T08:16:17.967Z</time>
      </trkpt>
      <trkpt lat="44.21962" lon="5.75227">
        <ele>1424.8</ele>
        <time>2021-05-28T08:16:23.441Z</time>
      </trkpt>
      <trkpt lat="44.21926" lon="5.75219">
        <ele>1419.1</ele>
        <time>2021-05-28T08:16:27.502Z</time>
      </trkpt>
      <trkpt lat="44.21897" lon="5.7523">
        <ele>1415.8</ele>
        <time>2021-05-28T08:16:30.851Z</time>
      </trkpt>
      <trkpt lat="44.21864" lon="5.7523">
        <ele>1411.1</ele>
        <time>2021-05-28T08:16:34.527Z</time>
      </trkpt>
      <trkpt lat="44.21805" lon="5.75214">
        <ele>1401.6</ele>
        <time>2021-05-28T08:16:41.224Z</time>
      </trkpt>
      <trkpt lat="44.21762" lon="5.75206">
        <ele>1395.2</ele>
        <time>2021-05-28T08:16:46.057Z</time>
      </trkpt>
      <trkpt lat="44.21746" lon="5.75196">
        <ele>1393.1</ele>
        <time>2021-05-28T08:16:48.010Z</time>
      </trkpt>
      <trkpt lat="44.21708" lon="5.75209">
        <ele>1387.2</ele>
        <time>2021-05-28T08:16:52.369Z</time>
      </trkpt>
      <trkpt lat="44.21683" lon="5.75224">
        <ele>1382.2</ele>
        <time>2021-05-28T08:16:55.401Z</time>
      </trkpt>
      <trkpt lat="44.2167" lon="5.75274">
        <ele>1375.1</ele>
        <time>2021-05-28T08:16:59.648Z</time>
      </trkpt>
      <trkpt lat="44.21699" lon="5.75318">
        <ele>1377.1</ele>
        <time>2021-05-28T08:17:20.034Z</time>
      </trkpt>
      <trkpt lat="44.21704" lon="5.75347">
        <ele>1377.6</ele>
        <time>2021-05-28T08:17:27.598Z</time>
      </trkpt>
      <trkpt lat="44.21681" lon="5.75339">
        <ele>1371.9</ele>
        <time>2021-05-28T08:17:30.239Z</time>
      </trkpt>
      <trkpt lat="44.21658" lon="5.75342">
        <ele>1366.6</ele>
        <time>2021-05-28T08:17:32.813Z</time>
      </trkpt>
      <trkpt lat="44.21614" lon="5.75378">
        <ele>1357.2</ele>
        <time>2021-05-28T08:17:38.496Z</time>
      </trkpt>
      <trkpt lat="44.21595" lon="5.75389">
        <ele>1352.2</ele>
        <time>2021-05-28T08:17:40.788Z</time>
      </trkpt>
      <trkpt lat="44.21593" lon="5.75334">
        <ele>1348.6</ele>
        <time>2021-05-28T08:17:45.185Z</time>
      </trkpt>
      <trkpt lat="44.21571" lon="5.75313">
        <ele>1345.9</ele>
        <time>2021-05-28T08:17:48.155Z</time>
      </trkpt>
      <trkpt lat="44.21537" lon="5.7529">
        <ele>1341.5</ele>
        <time>2021-05-28T08:17:52.365Z</time>
      </trkpt>
      <trkpt lat="44.21503" lon="5.75284">
        <ele>1334.7</ele>
        <time>2021-05-28T08:17:56.183Z</time>
      </trkpt>
      <trkpt lat="44.21467" lon="5.75292">
        <ele>1325.1</ele>
        <time>2021-05-28T08:18:00.244Z</time>
      </trkpt>
      <trkpt lat="44.21445" lon="5.75292">
        <ele>1320.3</ele>
        <time>2021-05-28T08:18:02.695Z</time>
      </trkpt>
      <trkpt lat="44.21431" lon="5.75261">
        <ele>1320.1</ele>
        <time>2021-05-28T08:18:07.548Z</time>
      </trkpt>
      <trkpt lat="44.21395" lon="5.75214">
        <ele>1313.5</ele>
        <time>2021-05-28T08:18:13.041Z</time>
      </trkpt>
      <trkpt lat="44.21386" lon="5.75175">
        <ele>1314.6</ele>
        <time>2021-05-28T08:18:25.470Z</time>
      </trkpt>
      <trkpt lat="44.21361" lon="5.75164">
        <ele>1307.6</ele>
        <time>2021-05-28T08:18:28.391Z</time>
      </trkpt>
      <trkpt lat="44.21334" lon="5.75183">
        <ele>1297.4</ele>
        <time>2021-05-28T08:18:31.760Z</time>
      </trkpt>
      <trkpt lat="44.21298" lon="5.75164">
        <ele>1293.9</ele>
        <time>2021-05-28T08:18:36.048Z</time>
      </trkpt>
      <trkpt lat="44.21264" lon="5.75164">
        <ele>1289</ele>
        <time>2021-05-28T08:18:39.836Z</time>
      </trkpt>
      <trkpt lat="44.21262" lon="5.75162">
        <ele>1288.8</ele>
        <time>2021-05-28T08:18:40.110Z</time>
      </trkpt>
      <trkpt lat="44.21236" lon="5.75181">
        <ele>1289.2</ele>
        <time>2021-05-28T08:18:49.435Z</time>
      </trkpt>
      <trkpt lat="44.21212" lon="5.75233">
        <ele>1287.5</ele>
        <time>2021-05-28T08:18:55.196Z</time>
      </trkpt>
      <trkpt lat="44.2119" lon="5.75272">
        <ele>1287.8</ele>
        <time>2021-05-28T08:19:05.915Z</time>
      </trkpt>
      <trkpt lat="44.21158" lon="5.75321">
        <ele>1290.7</ele>
        <time>2021-05-28T08:19:30.815Z</time>
      </trkpt>
      <trkpt lat="44.21136" lon="5.75366">
        <ele>1289.5</ele>
        <time>2021-05-28T08:19:36.291Z</time>
      </trkpt>
      <trkpt lat="44.2111" lon="5.75432">
        <ele>1284.4</ele>
        <time>2021-05-28T08:19:42.306Z</time>
      </trkpt>
      <trkpt lat="44.21091" lon="5.75443">
        <ele>1287</ele>
        <time>2021-05-28T08:20:02.329Z</time>
      </trkpt>
      <trkpt lat="44.21054" lon="5.75439">
        <ele>1291.3</ele>
        <time>2021-05-28T08:20:34.070Z</time>
      </trkpt>
      <trkpt lat="44.21009" lon="5.7545">
        <ele>1294</ele>
        <time>2021-05-28T08:20:57.689Z</time>
      </trkpt>
      <trkpt lat="44.20973" lon="5.75486">
        <ele>1289.9</ele>
        <time>2021-05-28T08:21:02.624Z</time>
      </trkpt>
      <trkpt lat="44.20992" lon="5.75504">
        <ele>1289.9</ele>
        <time>2021-05-28T08:21:09.010Z</time>
      </trkpt>
      <trkpt lat="44.21009" lon="5.75592">
        <ele>1298.6</ele>
        <time>2021-05-28T08:22:18.808Z</time>
      </trkpt>
      <trkpt lat="44.21016" lon="5.75625">
        <ele>1301</ele>
        <time>2021-05-28T08:22:36.186Z</time>
      </trkpt>
      <trkpt lat="44.20994" lon="5.75888">
        <ele>1338</ele>
        <time>2021-05-28T08:25:59.730Z</time>
      </trkpt>
      <trkpt lat="44.20982" lon="5.75908">
        <ele>1340.7</ele>
        <time>2021-05-28T08:26:19.779Z</time>
      </trkpt>
      <trkpt lat="44.2098" lon="5.75941">
        <ele>1344.9</ele>
        <time>2021-05-28T08:26:45.238Z</time>
      </trkpt>
      <trkpt lat="44.20968" lon="5.76006">
        <ele>1353</ele>
        <time>2021-05-28T08:27:36.835Z</time>
      </trkpt>
      <trkpt lat="44.20933" lon="5.76074">
        <ele>1359.7</ele>
        <time>2021-05-28T08:28:25.781Z</time>
      </trkpt>
      <trkpt lat="44.20907" lon="5.76149">
        <ele>1367.4</ele>
        <time>2021-05-28T08:29:25.919Z</time>
      </trkpt>
      <trkpt lat="44.20883" lon="5.76257">
        <ele>1380.6</ele>
        <time>2021-05-28T08:30:52.840Z</time>
      </trkpt>
      <trkpt lat="44.20868" lon="5.76398">
        <ele>1412.6</ele>
        <time>2021-05-28T08:32:42.419Z</time>
      </trkpt>
      <trkpt lat="44.20854" lon="5.76465">
        <ele>1429.6</ele>
        <time>2021-05-28T08:33:36.068Z</time>
      </trkpt>
      <trkpt lat="44.20843" lon="5.7649">
        <ele>1437.9</ele>
        <time>2021-05-28T08:33:58.618Z</time>
      </trkpt>
      <trkpt lat="44.20837" lon="5.76525">
        <ele>1446.1</ele>
        <time>2021-05-28T08:34:26.283Z</time>
      </trkpt>
      <trkpt lat="44.20821" lon="5.76559">
        <ele>1452.9</ele>
        <time>2021-05-28T08:34:57.549Z</time>
      </trkpt>
      <trkpt lat="44.20805" lon="5.76565">
        <ele>1454.1</ele>
        <time>2021-05-28T08:35:06.991Z</time>
      </trkpt>
      <trkpt lat="44.20803" lon="5.76595">
        <ele>1460.7</ele>
        <time>2021-05-28T08:35:30.153Z</time>
      </trkpt>
      <trkpt lat="44.20773" lon="5.76624">
        <ele>1470</ele>
        <time>2021-05-28T08:36:09.295Z</time>
      </trkpt>
      <trkpt lat="44.20776" lon="5.76652">
        <ele>1477.1</ele>
        <time>2021-05-28T08:36:31.059Z</time>
      </trkpt>
      <trkpt lat="44.20769" lon="5.76649">
        <ele>1477.2</ele>
        <time>2021-05-28T08:36:33.387Z</time>
      </trkpt>
      <trkpt lat="44.20757" lon="5.76674">
        <ele>1485.4</ele>
        <time>2021-05-28T08:36:56.516Z</time>
      </trkpt>
      <trkpt lat="44.20752" lon="5.76704">
        <ele>1492.6</ele>
        <time>2021-05-28T08:37:20.194Z</time>
      </trkpt>
      <trkpt lat="44.20751" lon="5.76716">
        <ele>1495.4</ele>
        <time>2021-05-28T08:37:29.481Z</time>
      </trkpt>
      <trkpt lat="44.20744" lon="5.76719">
        <ele>1494.5</ele>
        <time>2021-05-28T08:37:30.297Z</time>
      </trkpt>
      <trkpt lat="44.20724" lon="5.76775">
        <ele>1500.3</ele>
        <time>2021-05-28T08:38:15.698Z</time>
      </trkpt>
      <trkpt lat="44.20724" lon="5.76795">
        <ele>1504</ele>
        <time>2021-05-28T08:38:31.073Z</time>
      </trkpt>
      <trkpt lat="44.20717" lon="5.76819">
        <ele>1507.2</ele>
        <time>2021-05-28T08:38:50.991Z</time>
      </trkpt>
      <trkpt lat="44.207" lon="5.76838">
        <ele>1508</ele>
        <time>2021-05-28T08:39:00.118Z</time>
      </trkpt>
      <trkpt lat="44.20692" lon="5.76856">
        <ele>1510.9</ele>
        <time>2021-05-28T08:39:16.400Z</time>
      </trkpt>
      <trkpt lat="44.20682" lon="5.76933">
        <ele>1528.4</ele>
        <time>2021-05-28T08:40:16.558Z</time>
      </trkpt>
      <trkpt lat="44.20685" lon="5.76963">
        <ele>1535.3</ele>
        <time>2021-05-28T08:40:39.844Z</time>
      </trkpt>
      <trkpt lat="44.2068" lon="5.76969">
        <ele>1536.6</ele>
        <time>2021-05-28T08:40:46.917Z</time>
      </trkpt>
      <trkpt lat="44.20662" lon="5.77061">
        <ele>1557.2</ele>
        <time>2021-05-28T08:42:00.230Z</time>
      </trkpt>
      <trkpt lat="44.20663" lon="5.77072">
        <ele>1560.5</ele>
        <time>2021-05-28T08:42:08.754Z</time>
      </trkpt>
      <trkpt lat="44.2067" lon="5.771">
        <ele>1567</ele>
        <time>2021-05-28T08:42:31.551Z</time>
      </trkpt>
      <trkpt lat="44.2066" lon="5.7713">
        <ele>1570.7</ele>
        <time>2021-05-28T08:42:56.985Z</time>
      </trkpt>
      <trkpt lat="44.20633" lon="5.7719">
        <ele>1574</ele>
        <time>2021-05-28T08:43:24.361Z</time>
      </trkpt>
      <trkpt lat="44.20616" lon="5.77261">
        <ele>1581.7</ele>
        <time>2021-05-28T08:44:21.908Z</time>
      </trkpt>
      <trkpt lat="44.20569" lon="5.77376">
        <ele>1594.3</ele>
        <time>2021-05-28T08:46:02.724Z</time>
      </trkpt>
      <trkpt lat="44.20565" lon="5.77413">
        <ele>1594.5</ele>
        <time>2021-05-28T08:46:10.729Z</time>
      </trkpt>
      <trkpt lat="44.20556" lon="5.77505">
        <ele>1579.3</ele>
        <time>2021-05-28T08:46:18.144Z</time>
      </trkpt>
      <trkpt lat="44.20561" lon="5.77525">
        <ele>1577.5</ele>
        <time>2021-05-28T08:46:19.836Z</time>
      </trkpt>
      <trkpt lat="44.20576" lon="5.77604">
        <ele>1567.2</ele>
        <time>2021-05-28T08:46:26.363Z</time>
      </trkpt>
      <trkpt lat="44.20571" lon="5.77646">
        <ele>1550.7</ele>
        <time>2021-05-28T08:46:29.763Z</time>
      </trkpt>
      <trkpt lat="44.20589" lon="5.77681">
        <ele>1544.8</ele>
        <time>2021-05-28T08:46:33.203Z</time>
      </trkpt>
      <trkpt lat="44.20628" lon="5.7774">
        <ele>1524.3</ele>
        <time>2021-05-28T08:46:39.613Z</time>
      </trkpt>
      <trkpt lat="44.20635" lon="5.77741">
        <ele>1524.8</ele>
        <time>2021-05-28T08:46:43.582Z</time>
      </trkpt>
      <trkpt lat="44.20638" lon="5.77794">
        <ele>1503.5</ele>
        <time>2021-05-28T08:46:47.828Z</time>
      </trkpt>
      <trkpt lat="44.2065" lon="5.77808">
        <ele>1501</ele>
        <time>2021-05-28T08:46:49.570Z</time>
      </trkpt>
      <trkpt lat="44.20669" lon="5.77772">
        <ele>1518</ele>
        <time>2021-05-28T08:47:23.938Z</time>
      </trkpt>
      <trkpt lat="44.20694" lon="5.77752">
        <ele>1521.1</ele>
        <time>2021-05-28T08:47:46.434Z</time>
      </trkpt>
      <trkpt lat="44.2071" lon="5.77748">
        <ele>1519.7</ele>
        <time>2021-05-28T08:47:48.245Z</time>
      </trkpt>
      <trkpt lat="44.20727" lon="5.77753">
        <ele>1515.6</ele>
        <time>2021-05-28T08:47:50.181Z</time>
      </trkpt>
      <trkpt lat="44.20752" lon="5.7777">
        <ele>1506.4</ele>
        <time>2021-05-28T08:47:53.280Z</time>
      </trkpt>
      <trkpt lat="44.20762" lon="5.77795">
        <ele>1495.7</ele>
        <time>2021-05-28T08:47:55.566Z</time>
      </trkpt>
      <trkpt lat="44.20787" lon="5.7782">
        <ele>1480.4</ele>
        <time>2021-05-28T08:47:58.993Z</time>
      </trkpt>
      <trkpt lat="44.20812" lon="5.77861">
        <ele>1458</ele>
        <time>2021-05-28T08:48:03.292Z</time>
      </trkpt>
      <trkpt lat="44.20813" lon="5.77916">
        <ele>1436.7</ele>
        <time>2021-05-28T08:48:07.686Z</time>
      </trkpt>
      <trkpt lat="44.20822" lon="5.7794">
        <ele>1426.6</ele>
        <time>2021-05-28T08:48:09.849Z</time>
      </trkpt>
      <trkpt lat="44.20825" lon="5.77963">
        <ele>1417.8</ele>
        <time>2021-05-28T08:48:11.716Z</time>
      </trkpt>
      <trkpt lat="44.20821" lon="5.77974">
        <ele>1414.6</ele>
        <time>2021-05-28T08:48:12.701Z</time>
      </trkpt>
      <trkpt lat="44.20819" lon="5.78014">
        <ele>1401.8</ele>
        <time>2021-05-28T08:48:15.903Z</time>
      </trkpt>
      <trkpt lat="44.20829" lon="5.78056">
        <ele>1389.3</ele>
        <time>2021-05-28T08:48:19.438Z</time>
      </trkpt>
      <trkpt lat="44.20829" lon="5.7807">
        <ele>1385.6</ele>
        <time>2021-05-28T08:48:20.556Z</time>
      </trkpt>
      <trkpt lat="44.20852" lon="5.78144">
        <ele>1371.3</ele>
        <time>2021-05-28T08:48:26.997Z</time>
      </trkpt>
      <trkpt lat="44.20839" lon="5.78168">
        <ele>1370.6</ele>
        <time>2021-05-28T08:48:29.968Z</time>
      </trkpt>
      <trkpt lat="44.2082" lon="5.7819">
        <ele>1371.7</ele>
        <time>2021-05-28T08:48:41.559Z</time>
      </trkpt>
      <trkpt lat="44.20802" lon="5.78178">
        <ele>1368.4</ele>
        <time>2021-05-28T08:48:43.781Z</time>
      </trkpt>
      <trkpt lat="44.20791" lon="5.78162">
        <ele>1367.9</ele>
        <time>2021-05-28T08:48:45.993Z</time>
      </trkpt>
      <trkpt lat="44.20782" lon="5.78164">
        <ele>1366.6</ele>
        <time>2021-05-28T08:48:47.009Z</time>
      </trkpt>
      <trkpt lat="44.20773" lon="5.78216">
        <ele>1363</ele>
        <time>2021-05-28T08:48:51.281Z</time>
      </trkpt>
      <trkpt lat="44.20766" lon="5.78226">
        <ele>1360.7</ele>
        <time>2021-05-28T08:48:52.397Z</time>
      </trkpt>
      <trkpt lat="44.20746" lon="5.78262">
        <ele>1350.5</ele>
        <time>2021-05-28T08:48:56.035Z</time>
      </trkpt>
      <trkpt lat="44.20724" lon="5.78274">
        <ele>1340.2</ele>
        <time>2021-05-28T08:48:58.667Z</time>
      </trkpt>
      <trkpt lat="44.20709" lon="5.78292">
        <ele>1331.4</ele>
        <time>2021-05-28T08:49:00.871Z</time>
      </trkpt>
      <trkpt lat="44.20709" lon="5.783">
        <ele>1330.1</ele>
        <time>2021-05-28T08:49:01.510Z</time>
      </trkpt>
      <trkpt lat="44.20685" lon="5.78296">
        <ele>1321.7</ele>
        <time>2021-05-28T08:49:04.203Z</time>
      </trkpt>
      <trkpt lat="44.20673" lon="5.78315">
        <ele>1313.7</ele>
        <time>2021-05-28T08:49:06.225Z</time>
      </trkpt>
      <trkpt lat="44.20644" lon="5.78305">
        <ele>1309.3</ele>
        <time>2021-05-28T08:49:09.553Z</time>
      </trkpt>
      <trkpt lat="44.20663" lon="5.78393">
        <ele>1295.2</ele>
        <time>2021-05-28T08:49:16.893Z</time>
      </trkpt>
      <trkpt lat="44.20659" lon="5.78411">
        <ele>1290.9</ele>
        <time>2021-05-28T08:49:18.398Z</time>
      </trkpt>
      <trkpt lat="44.20665" lon="5.78457">
        <ele>1283.9</ele>
        <time>2021-05-28T08:49:22.133Z</time>
      </trkpt>
      <trkpt lat="44.2066" lon="5.78481">
        <ele>1278.9</ele>
        <time>2021-05-28T08:49:24.129Z</time>
      </trkpt>
      <trkpt lat="44.20641" lon="5.78492">
        <ele>1273.5</ele>
        <time>2021-05-28T08:49:26.420Z</time>
      </trkpt>
      <trkpt lat="44.20616" lon="5.78483">
        <ele>1270.4</ele>
        <time>2021-05-28T08:49:29.297Z</time>
      </trkpt>
      <trkpt lat="44.20608" lon="5.78491">
        <ele>1267.4</ele>
        <time>2021-05-28T08:49:30.394Z</time>
      </trkpt>
      <trkpt lat="44.20626" lon="5.78544">
        <ele>1257.8</ele>
        <time>2021-05-28T08:49:35.078Z</time>
      </trkpt>
      <trkpt lat="44.20634" lon="5.78557">
        <ele>1255.9</ele>
        <time>2021-05-28T08:49:36.446Z</time>
      </trkpt>
      <trkpt lat="44.20669" lon="5.78577">
        <ele>1257.4</ele>
        <time>2021-05-28T08:49:52.962Z</time>
      </trkpt>
      <trkpt lat="44.20659" lon="5.78614">
        <ele>1246.3</ele>
        <time>2021-05-28T08:49:56.120Z</time>
      </trkpt>
      <trkpt lat="44.20652" lon="5.78625">
        <ele>1242.4</ele>
        <time>2021-05-28T08:49:57.295Z</time>
      </trkpt>
      <trkpt lat="44.20657" lon="5.78652">
        <ele>1236.9</ele>
        <time>2021-05-28T08:49:59.522Z</time>
      </trkpt>
      <trkpt lat="44.20671" lon="5.78688">
        <ele>1231.8</ele>
        <time>2021-05-28T08:50:02.793Z</time>
      </trkpt>
      <trkpt lat="44.2069" lon="5.78718">
        <ele>1230.9</ele>
        <time>2021-05-28T08:50:06.792Z</time>
      </trkpt>
      <trkpt lat="44.20691" lon="5.7873">
        <ele>1228.4</ele>
        <time>2021-05-28T08:50:07.756Z</time>
      </trkpt>
      <trkpt lat="44.20679" lon="5.78759">
        <ele>1218.8</ele>
        <time>2021-05-28T08:50:10.431Z</time>
      </trkpt>
      <trkpt lat="44.2065" lon="5.78803">
        <ele>1206.6</ele>
        <time>2021-05-28T08:50:15.204Z</time>
      </trkpt>
      <trkpt lat="44.20645" lon="5.78876">
        <ele>1194.1</ele>
        <time>2021-05-28T08:50:21.061Z</time>
      </trkpt>
      <trkpt lat="44.20652" lon="5.78912">
        <ele>1189.1</ele>
        <time>2021-05-28T08:50:24.040Z</time>
      </trkpt>
      <trkpt lat="44.20574" lon="5.7893">
        <ele>1170.9</ele>
        <time>2021-05-28T08:50:32.848Z</time>
      </trkpt>
      <trkpt lat="44.20524" lon="5.78941">
        <ele>1158.2</ele>
        <time>2021-05-28T08:50:38.488Z</time>
      </trkpt>
      <trkpt lat="44.20502" lon="5.78936">
        <ele>1154.7</ele>
        <time>2021-05-28T08:50:40.971Z</time>
      </trkpt>
      <trkpt lat="44.2052" lon="5.78977">
        <ele>1150</ele>
        <time>2021-05-28T08:50:44.811Z</time>
      </trkpt>
      <trkpt lat="44.20527" lon="5.79035">
        <ele>1138.9</ele>
        <time>2021-05-28T08:50:49.508Z</time>
      </trkpt>
      <trkpt lat="44.20505" lon="5.78995">
        <ele>1143.8</ele>
        <time>2021-05-28T08:51:28.268Z</time>
      </trkpt>
      <trkpt lat="44.20461" lon="5.78976">
        <ele>1139.4</ele>
        <time>2021-05-28T08:51:33.400Z</time>
      </trkpt>
      <trkpt lat="44.20454" lon="5.78964">
        <ele>1140</ele>
        <time>2021-05-28T08:51:38.940Z</time>
      </trkpt>
      <trkpt lat="44.20439" lon="5.78905">
        <ele>1145.7</ele>
        <time>2021-05-28T08:52:22.983Z</time>
      </trkpt>
      <trkpt lat="44.20411" lon="5.7885">
        <ele>1145.7</ele>
        <time>2021-05-28T08:52:36.428Z</time>
      </trkpt>
      <trkpt lat="44.20408" lon="5.78824">
        <ele>1149.2</ele>
        <time>2021-05-28T08:52:56.674Z</time>
      </trkpt>
      <trkpt lat="44.20395" lon="5.78791">
        <ele>1153.8</ele>
        <time>2021-05-28T08:53:25.623Z</time>
      </trkpt>
      <trkpt lat="44.2035" lon="5.78737">
        <ele>1154.3</ele>
        <time>2021-05-28T08:53:43.507Z</time>
      </trkpt>
      <trkpt lat="44.20332" lon="5.78722">
        <ele>1153.1</ele>
        <time>2021-05-28T08:53:45.812Z</time>
      </trkpt>
      <trkpt lat="44.20323" lon="5.78703">
        <ele>1155.5</ele>
        <time>2021-05-28T08:54:03.320Z</time>
      </trkpt>
      <trkpt lat="44.20291" lon="5.7866">
        <ele>1157.5</ele>
        <time>2021-05-28T08:54:24.238Z</time>
      </trkpt>
      <trkpt lat="44.20282" lon="5.78625">
        <ele>1161.5</ele>
        <time>2021-05-28T08:54:52.825Z</time>
      </trkpt>
      <trkpt lat="44.20268" lon="5.78599">
        <ele>1162.6</ele>
        <time>2021-05-28T08:55:03.953Z</time>
      </trkpt>
      <trkpt lat="44.20259" lon="5.78592">
        <ele>1161.7</ele>
        <time>2021-05-28T08:55:05.101Z</time>
      </trkpt>
      <trkpt lat="44.20229" lon="5.78544">
        <ele>1166.6</ele>
        <time>2021-05-28T08:55:40.650Z</time>
      </trkpt>
      <trkpt lat="44.20203" lon="5.78525">
        <ele>1167.5</ele>
        <time>2021-05-28T08:55:51.998Z</time>
      </trkpt>
      <trkpt lat="44.20182" lon="5.78523">
        <ele>1165.2</ele>
        <time>2021-05-28T08:55:54.343Z</time>
      </trkpt>
      <trkpt lat="44.20156" lon="5.78497">
        <ele>1168.3</ele>
        <time>2021-05-28T08:56:16.796Z</time>
      </trkpt>
      <trkpt lat="44.2014" lon="5.78469">
        <ele>1172.8</ele>
        <time>2021-05-28T08:56:44.326Z</time>
      </trkpt>
      <trkpt lat="44.20135" lon="5.78447">
        <ele>1177.4</ele>
        <time>2021-05-28T08:57:02.069Z</time>
      </trkpt>
      <trkpt lat="44.20134" lon="5.78411">
        <ele>1185.5</ele>
        <time>2021-05-28T08:57:29.768Z</time>
      </trkpt>
      <trkpt lat="44.20114" lon="5.78351">
        <ele>1193.7</ele>
        <time>2021-05-28T08:58:20.641Z</time>
      </trkpt>
      <trkpt lat="44.20114" lon="5.78335">
        <ele>1196.5</ele>
        <time>2021-05-28T08:58:32.942Z</time>
      </trkpt>
      <trkpt lat="44.20143" lon="5.78332">
        <ele>1201.6</ele>
        <time>2021-05-28T08:59:04.128Z</time>
      </trkpt>
      <trkpt lat="44.20159" lon="5.7831">
        <ele>1208.3</ele>
        <time>2021-05-28T08:59:28.222Z</time>
      </trkpt>
      <trkpt lat="44.20231" lon="5.78258">
        <ele>1228.4</ele>
        <time>2021-05-28T09:00:55.174Z</time>
      </trkpt>
      <trkpt lat="44.20275" lon="5.7825">
        <ele>1239</ele>
        <time>2021-05-28T09:01:42.761Z</time>
      </trkpt>
      <trkpt lat="44.20294" lon="5.78254">
        <ele>1242.7</ele>
        <time>2021-05-28T09:02:03.368Z</time>
      </trkpt>
      <trkpt lat="44.20318" lon="5.78273">
        <ele>1244.5</ele>
        <time>2021-05-28T09:02:18.271Z</time>
      </trkpt>
      <trkpt lat="44.20331" lon="5.78292">
        <ele>1243.8</ele>
        <time>2021-05-28T09:02:20.746Z</time>
      </trkpt>
      <trkpt lat="44.2035" lon="5.78306">
        <ele>1245.6</ele>
        <time>2021-05-28T09:02:34.161Z</time>
      </trkpt>
      <trkpt lat="44.20384" lon="5.78295">
        <ele>1256.3</ele>
        <time>2021-05-28T09:03:11.592Z</time>
      </trkpt>
      <trkpt lat="44.20465" lon="5.78327">
        <ele>1270</ele>
        <time>2021-05-28T09:04:41.876Z</time>
      </trkpt>
      <trkpt lat="44.2047" lon="5.78316">
        <ele>1273.6</ele>
        <time>2021-05-28T09:04:51.889Z</time>
      </trkpt>
      <trkpt lat="44.20454" lon="5.78275">
        <ele>1277.8</ele>
        <time>2021-05-28T09:05:24.089Z</time>
      </trkpt>
      <trkpt lat="44.20431" lon="5.78243">
        <ele>1279.2</ele>
        <time>2021-05-28T09:05:39.012Z</time>
      </trkpt>
      <trkpt lat="44.20418" lon="5.78211">
        <ele>1284.1</ele>
        <time>2021-05-28T09:06:07.289Z</time>
      </trkpt>
      <trkpt lat="44.20404" lon="5.78206">
        <ele>1282.1</ele>
        <time>2021-05-28T09:06:08.899Z</time>
      </trkpt>
      <trkpt lat="44.20389" lon="5.7819">
        <ele>1282.6</ele>
        <time>2021-05-28T09:06:15.831Z</time>
      </trkpt>
      <trkpt lat="44.20357" lon="5.7817">
        <ele>1280.5</ele>
        <time>2021-05-28T09:06:19.603Z</time>
      </trkpt>
      <trkpt lat="44.20349" lon="5.78159">
        <ele>1281.8</ele>
        <time>2021-05-28T09:06:29.196Z</time>
      </trkpt>
      <trkpt lat="44.20342" lon="5.78081">
        <ele>1302.2</ele>
        <time>2021-05-28T09:07:29.630Z</time>
      </trkpt>
      <trkpt lat="44.20321" lon="5.78059">
        <ele>1301.3</ele>
        <time>2021-05-28T09:07:33.183Z</time>
      </trkpt>
      <trkpt lat="44.20312" lon="5.77996">
        <ele>1312.1</ele>
        <time>2021-05-28T09:08:22.570Z</time>
      </trkpt>
      <trkpt lat="44.20315" lon="5.77938">
        <ele>1323</ele>
        <time>2021-05-28T09:09:07.277Z</time>
      </trkpt>
      <trkpt lat="44.20311" lon="5.77912">
        <ele>1327.2</ele>
        <time>2021-05-28T09:09:27.721Z</time>
      </trkpt>
      <trkpt lat="44.20282" lon="5.77858">
        <ele>1337.3</ele>
        <time>2021-05-28T09:10:19.594Z</time>
      </trkpt>
      <trkpt lat="44.20265" lon="5.77882">
        <ele>1327.8</ele>
        <time>2021-05-28T09:10:22.289Z</time>
      </trkpt>
      <trkpt lat="44.20259" lon="5.77907">
        <ele>1319.5</ele>
        <time>2021-05-28T09:10:24.394Z</time>
      </trkpt>
      <trkpt lat="44.20227" lon="5.77937">
        <ele>1307.8</ele>
        <time>2021-05-28T09:10:28.690Z</time>
      </trkpt>
      <trkpt lat="44.20198" lon="5.77938">
        <ele>1304.6</ele>
        <time>2021-05-28T09:10:31.922Z</time>
      </trkpt>
      <trkpt lat="44.20167" lon="5.77927">
        <ele>1304.8</ele>
        <time>2021-05-28T09:10:41.356Z</time>
      </trkpt>
      <trkpt lat="44.20129" lon="5.7794">
        <ele>1298.5</ele>
        <time>2021-05-28T09:10:45.715Z</time>
      </trkpt>
      <trkpt lat="44.20114" lon="5.7796">
        <ele>1291.3</ele>
        <time>2021-05-28T09:10:48.027Z</time>
      </trkpt>
      <trkpt lat="44.20063" lon="5.78005">
        <ele>1273.2</ele>
        <time>2021-05-28T09:10:54.750Z</time>
      </trkpt>
      <trkpt lat="44.20037" lon="5.78007">
        <ele>1269.8</ele>
        <time>2021-05-28T09:10:57.652Z</time>
      </trkpt>
      <trkpt lat="44.1998" lon="5.78129">
        <ele>1238.3</ele>
        <time>2021-05-28T09:11:09.283Z</time>
      </trkpt>
      <trkpt lat="44.19966" lon="5.78145">
        <ele>1233.8</ele>
        <time>2021-05-28T09:11:11.299Z</time>
      </trkpt>
      <trkpt lat="44.19934" lon="5.78144">
        <ele>1233.4</ele>
        <time>2021-05-28T09:11:16.842Z</time>
      </trkpt>
      <trkpt lat="44.19912" lon="5.78117">
        <ele>1235.9</ele>
        <time>2021-05-28T09:11:35.377Z</time>
      </trkpt>
      <trkpt lat="44.19909" lon="5.78104">
        <ele>1237.2</ele>
        <time>2021-05-28T09:11:45.778Z</time>
      </trkpt>
      <trkpt lat="44.19897" lon="5.78077">
        <ele>1238.7</ele>
        <time>2021-05-28T09:11:58.135Z</time>
      </trkpt>
      <trkpt lat="44.19874" lon="5.78039">
        <ele>1238</ele>
        <time>2021-05-28T09:12:03.790Z</time>
      </trkpt>
      <trkpt lat="44.19862" lon="5.78027">
        <ele>1237.4</ele>
        <time>2021-05-28T09:12:05.668Z</time>
      </trkpt>
      <trkpt lat="44.19841" lon="5.7804">
        <ele>1234</ele>
        <time>2021-05-28T09:12:08.227Z</time>
      </trkpt>
      <trkpt lat="44.19814" lon="5.78078">
        <ele>1235.3</ele>
        <time>2021-05-28T09:12:23.693Z</time>
      </trkpt>
      <trkpt lat="44.19815" lon="5.78103">
        <ele>1231.5</ele>
        <time>2021-05-28T09:12:25.693Z</time>
      </trkpt>
      <trkpt lat="44.19804" lon="5.78161">
        <ele>1224.9</ele>
        <time>2021-05-28T09:12:30.485Z</time>
      </trkpt>
      <trkpt lat="44.19813" lon="5.78168">
        <ele>1221.7</ele>
        <time>2021-05-28T09:12:31.634Z</time>
      </trkpt>
      <trkpt lat="44.19818" lon="5.78199">
        <ele>1215.8</ele>
        <time>2021-05-28T09:12:34.172Z</time>
      </trkpt>
      <trkpt lat="44.19816" lon="5.7822">
        <ele>1213.1</ele>
        <time>2021-05-28T09:12:35.864Z</time>
      </trkpt>
      <trkpt lat="44.19823" lon="5.78227">
        <ele>1210.2</ele>
        <time>2021-05-28T09:12:36.823Z</time>
      </trkpt>
      <trkpt lat="44.19838" lon="5.78287">
        <ele>1197.8</ele>
        <time>2021-05-28T09:12:41.899Z</time>
      </trkpt>
      <trkpt lat="44.19843" lon="5.78311">
        <ele>1193.3</ele>
        <time>2021-05-28T09:12:43.895Z</time>
      </trkpt>
      <trkpt lat="44.19839" lon="5.78334">
        <ele>1189.4</ele>
        <time>2021-05-28T09:12:45.786Z</time>
      </trkpt>
      <trkpt lat="44.19838" lon="5.78386">
        <ele>1183.7</ele>
        <time>2021-05-28T09:12:49.941Z</time>
      </trkpt>
      <trkpt lat="44.19829" lon="5.78391">
        <ele>1184.2</ele>
        <time>2021-05-28T09:12:54.701Z</time>
      </trkpt>
      <trkpt lat="44.19785" lon="5.78423">
        <ele>1183.3</ele>
        <time>2021-05-28T09:13:02.712Z</time>
      </trkpt>
      <trkpt lat="44.19777" lon="5.7843">
        <ele>1184.1</ele>
        <time>2021-05-28T09:13:08.655Z</time>
      </trkpt>
      <trkpt lat="44.19742" lon="5.78461">
        <ele>1185.8</ele>
        <time>2021-05-28T09:13:27.117Z</time>
      </trkpt>
      <trkpt lat="44.19681" lon="5.78467">
        <ele>1174.3</ele>
        <time>2021-05-28T09:13:33.930Z</time>
      </trkpt>
      <trkpt lat="44.19652" lon="5.7848">
        <ele>1161.9</ele>
        <time>2021-05-28T09:13:37.324Z</time>
      </trkpt>
      <trkpt lat="44.19632" lon="5.78568">
        <ele>1150.6</ele>
        <time>2021-05-28T09:13:44.698Z</time>
      </trkpt>
      <trkpt lat="44.19624" lon="5.7857">
        <ele>1145.7</ele>
        <time>2021-05-28T09:13:45.603Z</time>
      </trkpt>
      <trkpt lat="44.19552" lon="5.78673">
        <ele>1123.2</ele>
        <time>2021-05-28T09:13:57.094Z</time>
      </trkpt>
      <trkpt lat="44.19512" lon="5.78715">
        <ele>1104.5</ele>
        <time>2021-05-28T09:14:02.672Z</time>
      </trkpt>
      <trkpt lat="44.19513" lon="5.78695">
        <ele>1102.5</ele>
        <time>2021-05-28T09:14:04.274Z</time>
      </trkpt>
      <trkpt lat="44.19502" lon="5.78701">
        <ele>1096.4</ele>
        <time>2021-05-28T09:14:05.590Z</time>
      </trkpt>
      <trkpt lat="44.19475" lon="5.78706">
        <ele>1081.6</ele>
        <time>2021-05-28T09:14:08.624Z</time>
      </trkpt>
      <trkpt lat="44.19457" lon="5.78744">
        <ele>1076</ele>
        <time>2021-05-28T09:14:12.262Z</time>
      </trkpt>
      <trkpt lat="44.19455" lon="5.78731">
        <ele>1073.3</ele>
        <time>2021-05-28T09:14:13.324Z</time>
      </trkpt>
      <trkpt lat="44.19436" lon="5.78753">
        <ele>1065.4</ele>
        <time>2021-05-28T09:14:16.076Z</time>
      </trkpt>
      <trkpt lat="44.19429" lon="5.78721">
        <ele>1057.5</ele>
        <time>2021-05-28T09:14:18.748Z</time>
      </trkpt>
      <trkpt lat="44.19412" lon="5.78737">
        <ele>1050.3</ele>
        <time>2021-05-28T09:14:21.033Z</time>
      </trkpt>
      <trkpt lat="44.19402" lon="5.78707">
        <ele>1042.2</ele>
        <time>2021-05-28T09:14:23.676Z</time>
      </trkpt>
      <trkpt lat="44.19404" lon="5.78683">
        <ele>1040.2</ele>
        <time>2021-05-28T09:14:25.606Z</time>
      </trkpt>
      <trkpt lat="44.19398" lon="5.78617">
        <ele>1034.4</ele>
        <time>2021-05-28T09:14:30.920Z</time>
      </trkpt>
      <trkpt lat="44.19395" lon="5.78614">
        <ele>1033.5</ele>
        <time>2021-05-28T09:14:31.331Z</time>
      </trkpt>
      <trkpt lat="44.19345" lon="5.78692">
        <ele>1014.4</ele>
        <time>2021-05-28T09:14:39.689Z</time>
      </trkpt>
      <trkpt lat="44.19342" lon="5.78705">
        <ele>1014.6</ele>
        <time>2021-05-28T09:14:43.038Z</time>
      </trkpt>
      <trkpt lat="44.19323" lon="5.78687">
        <ele>1006.2</ele>
        <time>2021-05-28T09:14:45.597Z</time>
      </trkpt>
      <trkpt lat="44.1927" lon="5.7869">
        <ele>994.7</ele>
        <time>2021-05-28T09:14:51.507Z</time>
      </trkpt>
      <trkpt lat="44.19241" lon="5.78712">
        <ele>986.2</ele>
        <time>2021-05-28T09:14:55.185Z</time>
      </trkpt>
      <trkpt lat="44.19235" lon="5.7873">
        <ele>982.5</ele>
        <time>2021-05-28T09:14:56.771Z</time>
      </trkpt>
      <trkpt lat="44.19186" lon="5.78755">
        <ele>968</ele>
        <time>2021-05-28T09:15:02.584Z</time>
      </trkpt>
      <trkpt lat="44.19143" lon="5.78777">
        <ele>961.1</ele>
        <time>2021-05-28T09:15:07.687Z</time>
      </trkpt>
      <trkpt lat="44.19078" lon="5.78843">
        <ele>942.7</ele>
        <time>2021-05-28T09:15:16.645Z</time>
      </trkpt>
      <trkpt lat="44.19075" lon="5.78853">
        <ele>942.3</ele>
        <time>2021-05-28T09:15:17.541Z</time>
      </trkpt>
      <trkpt lat="44.19058" lon="5.78874">
        <ele>939.4</ele>
        <time>2021-05-28T09:15:20.072Z</time>
      </trkpt>
      <trkpt lat="44.1904" lon="5.78886">
        <ele>935.4</ele>
        <time>2021-05-28T09:15:22.294Z</time>
      </trkpt>
      <trkpt lat="44.1903" lon="5.78884">
        <ele>933.8</ele>
        <time>2021-05-28T09:15:23.420Z</time>
      </trkpt>
      <trkpt lat="44.18988" lon="5.7892">
        <ele>921.7</ele>
        <time>2021-05-28T09:15:28.912Z</time>
      </trkpt>
      <trkpt lat="44.18964" lon="5.78942">
        <ele>920</ele>
        <time>2021-05-28T09:15:32.020Z</time>
      </trkpt>
      <trkpt lat="44.18944" lon="5.79006">
        <ele>913.3</ele>
        <time>2021-05-28T09:15:37.597Z</time>
      </trkpt>
      <trkpt lat="44.18936" lon="5.79013">
        <ele>910.9</ele>
        <time>2021-05-28T09:15:38.649Z</time>
      </trkpt>
      <trkpt lat="44.18931" lon="5.79051">
        <ele>905</ele>
        <time>2021-05-28T09:15:41.736Z</time>
      </trkpt>
      <trkpt lat="44.18921" lon="5.79072">
        <ele>899.1</ele>
        <time>2021-05-28T09:15:43.750Z</time>
      </trkpt>
      <trkpt lat="44.18893" lon="5.79084">
        <ele>893.7</ele>
        <time>2021-05-28T09:15:47.013Z</time>
      </trkpt>
      <trkpt lat="44.18862" lon="5.79128">
        <ele>888.7</ele>
        <time>2021-05-28T09:15:51.941Z</time>
      </trkpt>
      <trkpt lat="44.18818" lon="5.79131">
        <ele>882.6</ele>
        <time>2021-05-28T09:15:56.849Z</time>
      </trkpt>
      <trkpt lat="44.18782" lon="5.79168">
        <ele>874.8</ele>
        <time>2021-05-28T09:16:01.832Z</time>
      </trkpt>
      <trkpt lat="44.18782" lon="5.79168">
        <ele>874.8</ele>
        <time>2021-05-28T09:16:01.832Z</time>
      </trkpt>
      <trkpt lat="44.18766" lon="5.79157">
        <ele>874.3</ele>
        <time>2021-05-28T09:16:04.406Z</time>
      </trkpt>
      <trkpt lat="44.18735" lon="5.79155">
        <ele>871.6</ele>
        <time>2021-05-28T09:16:07.864Z</time>
      </trkpt>
      <trkpt lat="44.18723" lon="5.79142">
        <ele>872.5</ele>
        <time>2021-05-28T09:16:15.727Z</time>
      </trkpt>
      <trkpt lat="44.187" lon="5.79084">
        <ele>877.9</ele>
        <time>2021-05-28T09:16:55.350Z</time>
      </trkpt>
      <trkpt lat="44.1865" lon="5.79045">
        <ele>873.8</ele>
        <time>2021-05-28T09:17:01.733Z</time>
      </trkpt>
      <trkpt lat="44.18645" lon="5.79025">
        <ele>874.3</ele>
        <time>2021-05-28T09:17:07.779Z</time>
      </trkpt>
      <trkpt lat="44.18652" lon="5.78962">
        <ele>881.9</ele>
        <time>2021-05-28T09:17:56.805Z</time>
      </trkpt>
      <trkpt lat="44.18647" lon="5.78932">
        <ele>884.6</ele>
        <time>2021-05-28T09:18:17.195Z</time>
      </trkpt>
      <trkpt lat="44.18625" lon="5.78879">
        <ele>888.4</ele>
        <time>2021-05-28T09:18:45.263Z</time>
      </trkpt>
      <trkpt lat="44.18585" lon="5.78811">
        <ele>892.6</ele>
        <time>2021-05-28T09:19:19.666Z</time>
      </trkpt>
      <trkpt lat="44.18561" lon="5.78781">
        <ele>896.5</ele>
        <time>2021-05-28T09:19:48.967Z</time>
      </trkpt>
      <trkpt lat="44.18484" lon="5.78738">
        <ele>902.2</ele>
        <time>2021-05-28T09:20:34.930Z</time>
      </trkpt>
      <trkpt lat="44.18408" lon="5.78715">
        <ele>912.4</ele>
        <time>2021-05-28T09:21:55.677Z</time>
      </trkpt>
      <trkpt lat="44.18341" lon="5.78733">
        <ele>916.6</ele>
        <time>2021-05-28T09:22:31.566Z</time>
      </trkpt>
      <trkpt lat="44.1832" lon="5.78752">
        <ele>915.5</ele>
        <time>2021-05-28T09:22:34.653Z</time>
      </trkpt>
      <trkpt lat="44.18308" lon="5.78752">
        <ele>916.3</ele>
        <time>2021-05-28T09:22:41.202Z</time>
      </trkpt>
      <trkpt lat="44.18305" lon="5.78739">
        <ele>918</ele>
        <time>2021-05-28T09:22:51.705Z</time>
      </trkpt>
      <trkpt lat="44.18321" lon="5.78714">
        <ele>920.5</ele>
        <time>2021-05-28T09:23:09.791Z</time>
      </trkpt>
      <trkpt lat="44.1833" lon="5.78675">
        <ele>925.7</ele>
        <time>2021-05-28T09:23:41.299Z</time>
      </trkpt>
      <trkpt lat="44.18323" lon="5.78629">
        <ele>931.6</ele>
        <time>2021-05-28T09:24:17.464Z</time>
      </trkpt>
      <trkpt lat="44.18329" lon="5.78623">
        <ele>932.6</ele>
        <time>2021-05-28T09:24:25.382Z</time>
      </trkpt>
      <trkpt lat="44.18349" lon="5.78567">
        <ele>940.8</ele>
        <time>2021-05-28T09:25:13.495Z</time>
      </trkpt>
      <trkpt lat="44.18349" lon="5.78535">
        <ele>946.3</ele>
        <time>2021-05-28T09:25:38.105Z</time>
      </trkpt>
      <trkpt lat="44.18324" lon="5.78497">
        <ele>949.7</ele>
        <time>2021-05-28T09:26:02.897Z</time>
      </trkpt>
      <trkpt lat="44.18306" lon="5.78432">
        <ele>957</ele>
        <time>2021-05-28T09:26:56.484Z</time>
      </trkpt>
      <trkpt lat="44.18308" lon="5.78413">
        <ele>959.9</ele>
        <time>2021-05-28T09:27:11.253Z</time>
      </trkpt>
      <trkpt lat="44.18324" lon="5.78393">
        <ele>965.5</ele>
        <time>2021-05-28T09:27:34.296Z</time>
      </trkpt>
      <trkpt lat="44.18299" lon="5.78275">
        <ele>979.3</ele>
        <time>2021-05-28T09:29:08.924Z</time>
      </trkpt>
      <trkpt lat="44.18297" lon="5.78241">
        <ele>983.3</ele>
        <time>2021-05-28T09:29:35.160Z</time>
      </trkpt>
      <trkpt lat="44.18303" lon="5.78234">
        <ele>985.1</ele>
        <time>2021-05-28T09:29:43.550Z</time>
      </trkpt>
      <trkpt lat="44.18313" lon="5.78182">
        <ele>991.8</ele>
        <time>2021-05-28T09:30:24.954Z</time>
      </trkpt>
      <trkpt lat="44.18327" lon="5.78145">
        <ele>996.9</ele>
        <time>2021-05-28T09:30:57.128Z</time>
      </trkpt>
      <trkpt lat="44.18338" lon="5.78134">
        <ele>999.6</ele>
        <time>2021-05-28T09:31:11.644Z</time>
      </trkpt>
      <trkpt lat="44.18357" lon="5.78091">
        <ele>1004.4</ele>
        <time>2021-05-28T09:31:49.984Z</time>
      </trkpt>
      <trkpt lat="44.18397" lon="5.7804">
        <ele>1009.3</ele>
        <time>2021-05-28T09:32:25.823Z</time>
      </trkpt>
      <trkpt lat="44.18439" lon="5.78002">
        <ele>1015.1</ele>
        <time>2021-05-28T09:33:08.634Z</time>
      </trkpt>
      <trkpt lat="44.18457" lon="5.78005">
        <ele>1020.1</ele>
        <time>2021-05-28T09:33:28.075Z</time>
      </trkpt>
      <trkpt lat="44.18457" lon="5.7803">
        <ele>1022.4</ele>
        <time>2021-05-28T09:33:45.972Z</time>
      </trkpt>
      <trkpt lat="44.18437" lon="5.78111">
        <ele>1024</ele>
        <time>2021-05-28T09:34:08.404Z</time>
      </trkpt>
      <trkpt lat="44.1844" lon="5.78127">
        <ele>1025.4</ele>
        <time>2021-05-28T09:34:18.809Z</time>
      </trkpt>
      <trkpt lat="44.18466" lon="5.78102">
        <ele>1030.1</ele>
        <time>2021-05-28T09:34:52.679Z</time>
      </trkpt>
      <trkpt lat="44.18499" lon="5.78049">
        <ele>1034.3</ele>
        <time>2021-05-28T09:35:24.016Z</time>
      </trkpt>
      <trkpt lat="44.18524" lon="5.78007">
        <ele>1040.2</ele>
        <time>2021-05-28T09:36:05.994Z</time>
      </trkpt>
      <trkpt lat="44.18551" lon="5.77957">
        <ele>1045.7</ele>
        <time>2021-05-28T09:36:47.580Z</time>
      </trkpt>
      <trkpt lat="44.18556" lon="5.77926">
        <ele>1044.8</ele>
        <time>2021-05-28T09:36:50.509Z</time>
      </trkpt>
      <trkpt lat="44.18569" lon="5.77905">
        <ele>1048</ele>
        <time>2021-05-28T09:37:11.844Z</time>
      </trkpt>
      <trkpt lat="44.18595" lon="5.77879">
        <ele>1056.9</ele>
        <time>2021-05-28T09:37:46.155Z</time>
      </trkpt>
      <trkpt lat="44.18617" lon="5.77839">
        <ele>1063.8</ele>
        <time>2021-05-28T09:38:24.923Z</time>
      </trkpt>
      <trkpt lat="44.18621" lon="5.77783">
        <ele>1057.8</ele>
        <time>2021-05-28T09:38:29.419Z</time>
      </trkpt>
      <trkpt lat="44.18629" lon="5.77749">
        <ele>1057.1</ele>
        <time>2021-05-28T09:38:33.153Z</time>
      </trkpt>
      <trkpt lat="44.18656" lon="5.77695">
        <ele>1062.6</ele>
        <time>2021-05-28T09:39:13.829Z</time>
      </trkpt>
      <trkpt lat="44.18677" lon="5.77669">
        <ele>1069.9</ele>
        <time>2021-05-28T09:39:43.945Z</time>
      </trkpt>
      <trkpt lat="44.18697" lon="5.77591">
        <ele>1074</ele>
        <time>2021-05-28T09:40:16.936Z</time>
      </trkpt>
      <trkpt lat="44.18696" lon="5.77543">
        <ele>1070.2</ele>
        <time>2021-05-28T09:40:20.772Z</time>
      </trkpt>
      <trkpt lat="44.18714" lon="5.77481">
        <ele>1073.7</ele>
        <time>2021-05-28T09:40:48.222Z</time>
      </trkpt>
      <trkpt lat="44.18756" lon="5.77414">
        <ele>1078.6</ele>
        <time>2021-05-28T09:41:25.851Z</time>
      </trkpt>
      <trkpt lat="44.18711" lon="5.77419">
        <ele>1064.7</ele>
        <time>2021-05-28T09:41:30.880Z</time>
      </trkpt>
      <trkpt lat="44.18691" lon="5.77414">
        <ele>1057.5</ele>
        <time>2021-05-28T09:41:33.144Z</time>
      </trkpt>
      <trkpt lat="44.18685" lon="5.77399">
        <ele>1053.3</ele>
        <time>2021-05-28T09:41:34.516Z</time>
      </trkpt>
      <trkpt lat="44.18687" lon="5.77374">
        <ele>1050.2</ele>
        <time>2021-05-28T09:41:36.526Z</time>
      </trkpt>
      <trkpt lat="44.18679" lon="5.77365">
        <ele>1046.1</ele>
        <time>2021-05-28T09:41:37.671Z</time>
      </trkpt>
      <trkpt lat="44.18675" lon="5.77336">
        <ele>1040.3</ele>
        <time>2021-05-28T09:41:40.030Z</time>
      </trkpt>
      <trkpt lat="44.18657" lon="5.77327">
        <ele>1033</ele>
        <time>2021-05-28T09:41:42.161Z</time>
      </trkpt>
      <trkpt lat="44.18643" lon="5.77328">
        <ele>1029.5</ele>
        <time>2021-05-28T09:41:43.723Z</time>
      </trkpt>
      <trkpt lat="44.1861" lon="5.77355">
        <ele>1022.3</ele>
        <time>2021-05-28T09:41:47.985Z</time>
      </trkpt>
      <trkpt lat="44.18596" lon="5.77355">
        <ele>1017.8</ele>
        <time>2021-05-28T09:41:49.545Z</time>
      </trkpt>
      <trkpt lat="44.18587" lon="5.77344">
        <ele>1015</ele>
        <time>2021-05-28T09:41:50.878Z</time>
      </trkpt>
      <trkpt lat="44.18603" lon="5.77271">
        <ele>1013.8</ele>
        <time>2021-05-28T09:41:59.332Z</time>
      </trkpt>
      <trkpt lat="44.18601" lon="5.77241">
        <ele>1010.5</ele>
        <time>2021-05-28T09:42:01.739Z</time>
      </trkpt>
      <trkpt lat="44.18578" lon="5.77194">
        <ele>1001.2</ele>
        <time>2021-05-28T09:42:06.285Z</time>
      </trkpt>
      <trkpt lat="44.18575" lon="5.77168">
        <ele>997.1</ele>
        <time>2021-05-28T09:42:08.389Z</time>
      </trkpt>
      <trkpt lat="44.18584" lon="5.77121">
        <ele>994.1</ele>
        <time>2021-05-28T09:42:12.276Z</time>
      </trkpt>
      <trkpt lat="44.18586" lon="5.7706">
        <ele>987.6</ele>
        <time>2021-05-28T09:42:17.154Z</time>
      </trkpt>
      <trkpt lat="44.18581" lon="5.77015">
        <ele>982.3</ele>
        <time>2021-05-28T09:42:20.792Z</time>
      </trkpt>
      <trkpt lat="44.18584" lon="5.76981">
        <ele>979.4</ele>
        <time>2021-05-28T09:42:23.529Z</time>
      </trkpt>
      <trkpt lat="44.18579" lon="5.76962">
        <ele>977.1</ele>
        <time>2021-05-28T09:42:25.146Z</time>
      </trkpt>
      <trkpt lat="44.18592" lon="5.76911">
        <ele>973.4</ele>
        <time>2021-05-28T09:42:29.470Z</time>
      </trkpt>
      <trkpt lat="44.18591" lon="5.76896">
        <ele>972.4</ele>
        <time>2021-05-28T09:42:30.674Z</time>
      </trkpt>
      <trkpt lat="44.18598" lon="5.76886">
        <ele>971.6</ele>
        <time>2021-05-28T09:42:31.790Z</time>
      </trkpt>
      <trkpt lat="44.18623" lon="5.76803">
        <ele>964.2</ele>
        <time>2021-05-28T09:42:38.983Z</time>
      </trkpt>
      <trkpt lat="44.18629" lon="5.7676">
        <ele>958.7</ele>
        <time>2021-05-28T09:42:42.483Z</time>
      </trkpt>
      <trkpt lat="44.18642" lon="5.76768">
        <ele>959.6</ele>
        <time>2021-05-28T09:42:50.052Z</time>
      </trkpt>
      <trkpt lat="44.18649" lon="5.76784">
        <ele>961.6</ele>
        <time>2021-05-28T09:43:04.466Z</time>
      </trkpt>
      <trkpt lat="44.18659" lon="5.76793">
        <ele>962.7</ele>
        <time>2021-05-28T09:43:12.480Z</time>
      </trkpt>
      <trkpt lat="44.18685" lon="5.768">
        <ele>966.5</ele>
        <time>2021-05-28T09:43:40.878Z</time>
      </trkpt>
      <trkpt lat="44.18695" lon="5.76792">
        <ele>967.1</ele>
        <time>2021-05-28T09:43:46.559Z</time>
      </trkpt>
      <trkpt lat="44.18688" lon="5.76746">
        <ele>959.8</ele>
        <time>2021-05-28T09:43:50.316Z</time>
      </trkpt>
      <trkpt lat="44.18689" lon="5.76725">
        <ele>955.6</ele>
        <time>2021-05-28T09:43:51.997Z</time>
      </trkpt>
      <trkpt lat="44.18708" lon="5.767">
        <ele>954.6</ele>
        <time>2021-05-28T09:43:55.394Z</time>
      </trkpt>
      <trkpt lat="44.18728" lon="5.76648">
        <ele>949.8</ele>
        <time>2021-05-28T09:44:00.109Z</time>
      </trkpt>
      <trkpt lat="44.1872" lon="5.76638">
        <ele>945.8</ele>
        <time>2021-05-28T09:44:01.306Z</time>
      </trkpt>
      <trkpt lat="44.18711" lon="5.7664">
        <ele>944</ele>
        <time>2021-05-28T09:44:02.321Z</time>
      </trkpt>
      <trkpt lat="44.18701" lon="5.76663">
        <ele>946</ele>
        <time>2021-05-28T09:44:16.787Z</time>
      </trkpt>
      <trkpt lat="44.18649" lon="5.76693">
        <ele>943.6</ele>
        <time>2021-05-28T09:44:23.809Z</time>
      </trkpt>
      <trkpt lat="44.18619" lon="5.76672">
        <ele>937.6</ele>
        <time>2021-05-28T09:44:27.549Z</time>
      </trkpt>
      <trkpt lat="44.18582" lon="5.76674">
        <ele>937</ele>
        <time>2021-05-28T09:44:33.669Z</time>
      </trkpt>
      <trkpt lat="44.18542" lon="5.76635">
        <ele>925.5</ele>
        <time>2021-05-28T09:44:39.107Z</time>
      </trkpt>
      <trkpt lat="44.1855" lon="5.76626">
        <ele>923.4</ele>
        <time>2021-05-28T09:44:40.252Z</time>
      </trkpt>
      <trkpt lat="44.18581" lon="5.76655">
        <ele>932</ele>
        <time>2021-05-28T09:45:20.285Z</time>
      </trkpt>
      <trkpt lat="44.18594" lon="5.76648">
        <ele>930.9</ele>
        <time>2021-05-28T09:45:21.838Z</time>
      </trkpt>
      <trkpt lat="44.18598" lon="5.76634">
        <ele>927.7</ele>
        <time>2021-05-28T09:45:23.042Z</time>
      </trkpt>
      <trkpt lat="44.18587" lon="5.76614">
        <ele>922</ele>
        <time>2021-05-28T09:45:25.056Z</time>
      </trkpt>
      <trkpt lat="44.18527" lon="5.76594">
        <ele>913.6</ele>
        <time>2021-05-28T09:45:31.929Z</time>
      </trkpt>
      <trkpt lat="44.18469" lon="5.76604">
        <ele>909.6</ele>
        <time>2021-05-28T09:45:38.440Z</time>
      </trkpt>
      <trkpt lat="44.1844" lon="5.76627">
        <ele>909.2</ele>
        <time>2021-05-28T09:45:44.255Z</time>
      </trkpt>
      <trkpt lat="44.18412" lon="5.76625">
        <ele>903.4</ele>
        <time>2021-05-28T09:45:47.379Z</time>
      </trkpt>
      <trkpt lat="44.18365" lon="5.76636">
        <ele>898.8</ele>
        <time>2021-05-28T09:45:52.688Z</time>
      </trkpt>
      <trkpt lat="44.18243" lon="5.76611">
        <ele>891.6</ele>
        <time>2021-05-28T09:46:06.117Z</time>
      </trkpt>
      <trkpt lat="44.18222" lon="5.76617">
        <ele>893.4</ele>
        <time>2021-05-28T09:46:19.522Z</time>
      </trkpt>
      <trkpt lat="44.18194" lon="5.76643">
        <ele>890</ele>
        <time>2021-05-28T09:46:23.270Z</time>
      </trkpt>
      <trkpt lat="44.18178" lon="5.7668">
        <ele>880.5</ele>
        <time>2021-05-28T09:46:26.722Z</time>
      </trkpt>
      <trkpt lat="44.18166" lon="5.76693">
        <ele>876.5</ele>
        <time>2021-05-28T09:46:28.415Z</time>
      </trkpt>
      <trkpt lat="44.18153" lon="5.76697">
        <ele>872.5</ele>
        <time>2021-05-28T09:46:29.898Z</time>
      </trkpt>
      <trkpt lat="44.18136" lon="5.76686">
        <ele>871.2</ele>
        <time>2021-05-28T09:46:31.986Z</time>
      </trkpt>
      <trkpt lat="44.18125" lon="5.76668">
        <ele>873.2</ele>
        <time>2021-05-28T09:46:46.844Z</time>
      </trkpt>
      <trkpt lat="44.18114" lon="5.76677">
        <ele>868.4</ele>
        <time>2021-05-28T09:46:48.265Z</time>
      </trkpt>
      <trkpt lat="44.18115" lon="5.76687">
        <ele>866</ele>
        <time>2021-05-28T09:46:49.072Z</time>
      </trkpt>
      <trkpt lat="44.18156" lon="5.76719">
        <ele>867.8</ele>
        <time>2021-05-28T09:47:09.198Z</time>
      </trkpt>
      <trkpt lat="44.18196" lon="5.76727">
        <ele>873.1</ele>
        <time>2021-05-28T09:47:51.155Z</time>
      </trkpt>
      <trkpt lat="44.18194" lon="5.76737">
        <ele>871</ele>
        <time>2021-05-28T09:47:51.984Z</time>
      </trkpt>
      <trkpt lat="44.18179" lon="5.7674">
        <ele>867.7</ele>
        <time>2021-05-28T09:47:53.673Z</time>
      </trkpt>
      <trkpt lat="44.1811" lon="5.76726">
        <ele>854.9</ele>
        <time>2021-05-28T09:48:01.441Z</time>
      </trkpt>
      <trkpt lat="44.18098" lon="5.76716">
        <ele>854.5</ele>
        <time>2021-05-28T09:48:03.446Z</time>
      </trkpt>
      <trkpt lat="44.18074" lon="5.7667">
        <ele>858.2</ele>
        <time>2021-05-28T09:48:30.491Z</time>
      </trkpt>
      <trkpt lat="44.18031" lon="5.76627">
        <ele>849</ele>
        <time>2021-05-28T09:48:36.387Z</time>
      </trkpt>
      <trkpt lat="44.18016" lon="5.76599">
        <ele>849.4</ele>
        <time>2021-05-28T09:48:44.549Z</time>
      </trkpt>
      <trkpt lat="44.17977" lon="5.76561">
        <ele>843.8</ele>
        <time>2021-05-28T09:48:49.850Z</time>
      </trkpt>
      <trkpt lat="44.17933" lon="5.76539">
        <ele>829.3</ele>
        <time>2021-05-28T09:48:55.057Z</time>
      </trkpt>
      <trkpt lat="44.1791" lon="5.76488">
        <ele>825.5</ele>
        <time>2021-05-28T09:48:59.871Z</time>
      </trkpt>
      <trkpt lat="44.17916" lon="5.76478">
        <ele>828.1</ele>
        <time>2021-05-28T09:49:09.899Z</time>
      </trkpt>
      <trkpt lat="44.17906" lon="5.76458">
        <ele>825.2</ele>
        <time>2021-05-28T09:49:11.847Z</time>
      </trkpt>
      <trkpt lat="44.17904" lon="5.76441">
        <ele>824.9</ele>
        <time>2021-05-28T09:49:13.705Z</time>
      </trkpt>
      <trkpt lat="44.17862" lon="5.7639">
        <ele>802.2</ele>
        <time>2021-05-28T09:49:19.910Z</time>
      </trkpt>
      <trkpt lat="44.17857" lon="5.76363">
        <ele>797.3</ele>
        <time>2021-05-28T09:49:22.138Z</time>
      </trkpt>
      <trkpt lat="44.17878" lon="5.76324">
        <ele>804.3</ele>
        <time>2021-05-28T09:49:59.648Z</time>
      </trkpt>
      <trkpt lat="44.17876" lon="5.76291">
        <ele>796.9</ele>
        <time>2021-05-28T09:50:02.294Z</time>
      </trkpt>
      <trkpt lat="44.1788" lon="5.76267">
        <ele>794.6</ele>
        <time>2021-05-28T09:50:04.262Z</time>
      </trkpt>
      <trkpt lat="44.17886" lon="5.76258">
        <ele>796.2</ele>
        <time>2021-05-28T09:50:13.713Z</time>
      </trkpt>
      <trkpt lat="44.17882" lon="5.76238">
        <ele>790.8</ele>
        <time>2021-05-28T09:50:15.372Z</time>
      </trkpt>
      <trkpt lat="44.17883" lon="5.76205">
        <ele>786.8</ele>
        <time>2021-05-28T09:50:18.012Z</time>
      </trkpt>
      <trkpt lat="44.17868" lon="5.76178">
        <ele>774.7</ele>
        <time>2021-05-28T09:50:20.741Z</time>
      </trkpt>
      <trkpt lat="44.17873" lon="5.76162">
        <ele>775.9</ele>
        <time>2021-05-28T09:50:29.441Z</time>
      </trkpt>
      <trkpt lat="44.17854" lon="5.76121">
        <ele>767.9</ele>
        <time>2021-05-28T09:50:33.341Z</time>
      </trkpt>
      <trkpt lat="44.17866" lon="5.76111">
        <ele>773.3</ele>
        <time>2021-05-28T09:50:48.334Z</time>
      </trkpt>
      <trkpt lat="44.17869" lon="5.76096">
        <ele>774.8</ele>
        <time>2021-05-28T09:51:00.311Z</time>
      </trkpt>
      <trkpt lat="44.17796" lon="5.76035">
        <ele>757.1</ele>
        <time>2021-05-28T09:51:09.792Z</time>
      </trkpt>
      <trkpt lat="44.17794" lon="5.76041">
        <ele>756</ele>
        <time>2021-05-28T09:51:10.321Z</time>
      </trkpt>
      <trkpt lat="44.17789" lon="5.76039">
        <ele>754.7</ele>
        <time>2021-05-28T09:51:10.901Z</time>
      </trkpt>
      <trkpt lat="44.17742" lon="5.75918">
        <ele>748.4</ele>
        <time>2021-05-28T09:51:21.194Z</time>
      </trkpt>
      <trkpt lat="44.17739" lon="5.75893">
        <ele>746.1</ele>
        <time>2021-05-28T09:51:23.220Z</time>
      </trkpt>
      <trkpt lat="44.17725" lon="5.75909">
        <ele>742.7</ele>
        <time>2021-05-28T09:51:25.236Z</time>
      </trkpt>
      <trkpt lat="44.17717" lon="5.75907">
        <ele>740.1</ele>
        <time>2021-05-28T09:51:26.142Z</time>
      </trkpt>
      <trkpt lat="44.17668" lon="5.75856">
        <ele>721.8</ele>
        <time>2021-05-28T09:51:32.954Z</time>
      </trkpt>
      <trkpt lat="44.17677" lon="5.75804">
        <ele>717</ele>
        <time>2021-05-28T09:51:37.229Z</time>
      </trkpt>
      <trkpt lat="44.17677" lon="5.75772">
        <ele>710.2</ele>
        <time>2021-05-28T09:51:39.786Z</time>
      </trkpt>
      <trkpt lat="44.17683" lon="5.75755">
        <ele>708.5</ele>
        <time>2021-05-28T09:51:41.300Z</time>
      </trkpt>
      <trkpt lat="44.17687" lon="5.75717">
        <ele>700.9</ele>
        <time>2021-05-28T09:51:44.369Z</time>
      </trkpt>
      <trkpt lat="44.17699" lon="5.75702">
        <ele>701</ele>
        <time>2021-05-28T09:51:49.120Z</time>
      </trkpt>
      <trkpt lat="44.17697" lon="5.75687">
        <ele>696.7</ele>
        <time>2021-05-28T09:51:50.339Z</time>
      </trkpt>
      <trkpt lat="44.1767" lon="5.75667">
        <ele>684</ele>
        <time>2021-05-28T09:51:53.745Z</time>
      </trkpt>
      <trkpt lat="44.17674" lon="5.75657">
        <ele>684.3</ele>
        <time>2021-05-28T09:51:57.177Z</time>
      </trkpt>
      <trkpt lat="44.17665" lon="5.75635">
        <ele>680</ele>
        <time>2021-05-28T09:51:59.200Z</time>
      </trkpt>
      <trkpt lat="44.17667" lon="5.75618">
        <ele>679</ele>
        <time>2021-05-28T09:52:00.577Z</time>
      </trkpt>
      <trkpt lat="44.17659" lon="5.75606">
        <ele>676.5</ele>
        <time>2021-05-28T09:52:01.886Z</time>
      </trkpt>
      <trkpt lat="44.17658" lon="5.75582">
        <ele>674.4</ele>
        <time>2021-05-28T09:52:03.807Z</time>
      </trkpt>
      <trkpt lat="44.17652" lon="5.75566">
        <ele>673.2</ele>
        <time>2021-05-28T09:52:05.250Z</time>
      </trkpt>
      <trkpt lat="44.17611" lon="5.75534">
        <ele>665.8</ele>
        <time>2021-05-28T09:52:10.485Z</time>
      </trkpt>
      <trkpt lat="44.17559" lon="5.75513">
        <ele>658</ele>
        <time>2021-05-28T09:52:16.516Z</time>
      </trkpt>
      <trkpt lat="44.17538" lon="5.75496">
        <ele>655.9</ele>
        <time>2021-05-28T09:52:19.222Z</time>
      </trkpt>
      <trkpt lat="44.1753" lon="5.75481">
        <ele>656.3</ele>
        <time>2021-05-28T09:52:24.351Z</time>
      </trkpt>
      <trkpt lat="44.17526" lon="5.75454">
        <ele>658.1</ele>
        <time>2021-05-28T09:52:37.499Z</time>
      </trkpt>
      <trkpt lat="44.17511" lon="5.75417">
        <ele>658.8</ele>
        <time>2021-05-28T09:52:48.232Z</time>
      </trkpt>
      <trkpt lat="44.17497" lon="5.75403">
        <ele>657.8</ele>
        <time>2021-05-28T09:52:50.114Z</time>
      </trkpt>
      <trkpt lat="44.17458" lon="5.75394">
        <ele>652.1</ele>
        <time>2021-05-28T09:52:54.518Z</time>
      </trkpt>
      <trkpt lat="44.17439" lon="5.75379">
        <ele>649.8</ele>
        <time>2021-05-28T09:52:56.950Z</time>
      </trkpt>
      <trkpt lat="44.17422" lon="5.75347">
        <ele>648.4</ele>
        <time>2021-05-28T09:53:00.316Z</time>
      </trkpt>
      <trkpt lat="44.1741" lon="5.75293">
        <ele>646.2</ele>
        <time>2021-05-28T09:53:04.884Z</time>
      </trkpt>
      <trkpt lat="44.17411" lon="5.75249">
        <ele>645.3</ele>
        <time>2021-05-28T09:53:09.418Z</time>
      </trkpt>
      <trkpt lat="44.17427" lon="5.75212">
        <ele>645.5</ele>
        <time>2021-05-28T09:53:18.575Z</time>
      </trkpt>
      <trkpt lat="44.17428" lon="5.75191">
        <ele>644.4</ele>
        <time>2021-05-28T09:53:20.257Z</time>
      </trkpt>
      <trkpt lat="44.17421" lon="5.75182">
        <ele>643.2</ele>
        <time>2021-05-28T09:53:21.318Z</time>
      </trkpt>
      <trkpt lat="44.17421" lon="5.75182">
        <ele>643.2</ele>
        <time>2021-05-28T09:53:21.318Z</time>
      </trkpt>
      <trkpt lat="44.17366" lon="5.75117">
        <ele>644.5</ele>
        <time>2021-05-28T09:53:45.330Z</time>
      </trkpt>
      <trkpt lat="44.17322" lon="5.75018">
        <ele>650.3</ele>
        <time>2021-05-28T09:54:31.867Z</time>
      </trkpt>
      <trkpt lat="44.17282" lon="5.74954">
        <ele>653.4</ele>
        <time>2021-05-28T09:55:01.647Z</time>
      </trkpt>
      <trkpt lat="44.17267" lon="5.74881">
        <ele>656.2</ele>
        <time>2021-05-28T09:55:28.373Z</time>
      </trkpt>
      <trkpt lat="44.17282" lon="5.74769">
        <ele>662.5</ele>
        <time>2021-05-28T09:56:16.677Z</time>
      </trkpt>
      <trkpt lat="44.1727" lon="5.74679">
        <ele>665.1</ele>
        <time>2021-05-28T09:56:45.323Z</time>
      </trkpt>
      <trkpt lat="44.17218" lon="5.7455">
        <ele>664.5</ele>
        <time>2021-05-28T09:57:12.481Z</time>
      </trkpt>
      <trkpt lat="44.17193" lon="5.74477">
        <ele>666.1</ele>
        <time>2021-05-28T09:57:34.065Z</time>
      </trkpt>
      <trkpt lat="44.17181" lon="5.74409">
        <ele>658.9</ele>
        <time>2021-05-28T09:57:39.661Z</time>
      </trkpt>
      <trkpt lat="44.17138" lon="5.74302">
        <ele>646.5</ele>
        <time>2021-05-28T09:57:49.463Z</time>
      </trkpt>
      <trkpt lat="44.17085" lon="5.74246">
        <ele>637.9</ele>
        <time>2021-05-28T09:57:56.872Z</time>
      </trkpt>
      <trkpt lat="44.17067" lon="5.7422">
        <ele>635.5</ele>
        <time>2021-05-28T09:57:59.759Z</time>
      </trkpt>
      <trkpt lat="44.1711" lon="5.74134">
        <ele>635.4</ele>
        <time>2021-05-28T09:58:20.249Z</time>
      </trkpt>
      <trkpt lat="44.17147" lon="5.74078">
        <ele>638.6</ele>
        <time>2021-05-28T09:58:48.383Z</time>
      </trkpt>
      <trkpt lat="44.17153" lon="5.73997">
        <ele>639.3</ele>
        <time>2021-05-28T09:59:06.626Z</time>
      </trkpt>
      <trkpt lat="44.17165" lon="5.73894">
        <ele>639.3</ele>
        <time>2021-05-28T09:59:27.436Z</time>
      </trkpt>
      <trkpt lat="44.1721" lon="5.73855">
        <ele>646.8</ele>
        <time>2021-05-28T10:00:24.260Z</time>
      </trkpt>
      <trkpt lat="44.17232" lon="5.73802">
        <ele>651.6</ele>
        <time>2021-05-28T10:00:59.177Z</time>
      </trkpt>
      <trkpt lat="44.17258" lon="5.73857">
        <ele>657.1</ele>
        <time>2021-05-28T10:01:39.841Z</time>
      </trkpt>
      <trkpt lat="44.17278" lon="5.73859">
        <ele>663.7</ele>
        <time>2021-05-28T10:02:01.345Z</time>
      </trkpt>
      <trkpt lat="44.17259" lon="5.73825">
        <ele>658.5</ele>
        <time>2021-05-28T10:02:04.789Z</time>
      </trkpt>
      <trkpt lat="44.17286" lon="5.73711">
        <ele>669.2</ele>
        <time>2021-05-28T10:03:26.327Z</time>
      </trkpt>
      <trkpt lat="44.17296" lon="5.73733">
        <ele>674.1</ele>
        <time>2021-05-28T10:03:46.361Z</time>
      </trkpt>
      <trkpt lat="44.17287" lon="5.73767">
        <ele>670.6</ele>
        <time>2021-05-28T10:03:49.257Z</time>
      </trkpt>
      <trkpt lat="44.17295" lon="5.73799">
        <ele>672.5</ele>
        <time>2021-05-28T10:04:03.749Z</time>
      </trkpt>
      <trkpt lat="44.17315" lon="5.73772">
        <ele>681</ele>
        <time>2021-05-28T10:04:33.605Z</time>
      </trkpt>
      <trkpt lat="44.17376" lon="5.73718">
        <ele>703.1</ele>
        <time>2021-05-28T10:05:51.096Z</time>
      </trkpt>
      <trkpt lat="44.17355" lon="5.73817">
        <ele>694.6</ele>
        <time>2021-05-28T10:05:59.346Z</time>
      </trkpt>
      <trkpt lat="44.17392" lon="5.73767">
        <ele>707.9</ele>
        <time>2021-05-28T10:06:54.606Z</time>
      </trkpt>
      <trkpt lat="44.17435" lon="5.73744">
        <ele>720.8</ele>
        <time>2021-05-28T10:07:43.998Z</time>
      </trkpt>
      <trkpt lat="44.17427" lon="5.73673">
        <ele>722</ele>
        <time>2021-05-28T10:08:02.215Z</time>
      </trkpt>
      <trkpt lat="44.17409" lon="5.73623">
        <ele>719</ele>
        <time>2021-05-28T10:08:06.685Z</time>
      </trkpt>
      <trkpt lat="44.17436" lon="5.73535">
        <ele>727.2</ele>
        <time>2021-05-28T10:09:07.928Z</time>
      </trkpt>
      <trkpt lat="44.17479" lon="5.73456">
        <ele>736.6</ele>
        <time>2021-05-28T10:10:22.824Z</time>
      </trkpt>
      <trkpt lat="44.17483" lon="5.73535">
        <ele>743.8</ele>
        <time>2021-05-28T10:11:18.380Z</time>
      </trkpt>
      <trkpt lat="44.17529" lon="5.73638">
        <ele>755.5</ele>
        <time>2021-05-28T10:12:51.708Z</time>
      </trkpt>
      <trkpt lat="44.1759" lon="5.73733">
        <ele>765</ele>
        <time>2021-05-28T10:14:00.430Z</time>
      </trkpt>
      <trkpt lat="44.17615" lon="5.73754">
        <ele>770.3</ele>
        <time>2021-05-28T10:14:31.731Z</time>
      </trkpt>
      <trkpt lat="44.17632" lon="5.73812">
        <ele>767.8</ele>
        <time>2021-05-28T10:14:36.736Z</time>
      </trkpt>
      <trkpt lat="44.17661" lon="5.73739">
        <ele>784.1</ele>
        <time>2021-05-28T10:15:40.922Z</time>
      </trkpt>
      <trkpt lat="44.17655" lon="5.73638">
        <ele>788.4</ele>
        <time>2021-05-28T10:16:18.516Z</time>
      </trkpt>
      <trkpt lat="44.17687" lon="5.73538">
        <ele>796.2</ele>
        <time>2021-05-28T10:17:14.926Z</time>
      </trkpt>
      <trkpt lat="44.17695" lon="5.73589">
        <ele>800.6</ele>
        <time>2021-05-28T10:17:47.569Z</time>
      </trkpt>
      <trkpt lat="44.17721" lon="5.73651">
        <ele>804.9</ele>
        <time>2021-05-28T10:18:19.649Z</time>
      </trkpt>
      <trkpt lat="44.17769" lon="5.73699">
        <ele>812.9</ele>
        <time>2021-05-28T10:19:22.996Z</time>
      </trkpt>
      <trkpt lat="44.17815" lon="5.73769">
        <ele>807.4</ele>
        <time>2021-05-28T10:19:30.583Z</time>
      </trkpt>
      <trkpt lat="44.17812" lon="5.73645">
        <ele>828.1</ele>
        <time>2021-05-28T10:21:06.009Z</time>
      </trkpt>
      <trkpt lat="44.17813" lon="5.73602">
        <ele>829.4</ele>
        <time>2021-05-28T10:21:19.980Z</time>
      </trkpt>
      <trkpt lat="44.17853" lon="5.73527">
        <ele>837</ele>
        <time>2021-05-28T10:22:15.713Z</time>
      </trkpt>
      <trkpt lat="44.17873" lon="5.73593">
        <ele>833.9</ele>
        <time>2021-05-28T10:22:21.222Z</time>
      </trkpt>
      <trkpt lat="44.17898" lon="5.7349">
        <ele>848.6</ele>
        <time>2021-05-28T10:23:44.856Z</time>
      </trkpt>
      <trkpt lat="44.17904" lon="5.73422">
        <ele>860.2</ele>
        <time>2021-05-28T10:24:37.550Z</time>
      </trkpt>
      <trkpt lat="44.17909" lon="5.73375">
        <ele>864.4</ele>
        <time>2021-05-28T10:25:09.408Z</time>
      </trkpt>
      <trkpt lat="44.17941" lon="5.73422">
        <ele>863.3</ele>
        <time>2021-05-28T10:25:16.445Z</time>
      </trkpt>
      <trkpt lat="44.17987" lon="5.73398">
        <ele>867.2</ele>
        <time>2021-05-28T10:25:46.022Z</time>
      </trkpt>
      <trkpt lat="44.18009" lon="5.73377">
        <ele>872</ele>
        <time>2021-05-28T10:26:14.614Z</time>
      </trkpt>
      <trkpt lat="44.18035" lon="5.73323">
        <ele>879.8</ele>
        <time>2021-05-28T10:27:04.638Z</time>
      </trkpt>
      <trkpt lat="44.181" lon="5.73291">
        <ele>881.5</ele>
        <time>2021-05-28T10:27:29.397Z</time>
      </trkpt>
      <trkpt lat="44.1812" lon="5.73166">
        <ele>878.9</ele>
        <time>2021-05-28T10:27:42.614Z</time>
      </trkpt>
      <trkpt lat="44.1814" lon="5.73098">
        <ele>880.9</ele>
        <time>2021-05-28T10:28:05.076Z</time>
      </trkpt>
      <trkpt lat="44.18157" lon="5.73038">
        <ele>885.8</ele>
        <time>2021-05-28T10:28:40.572Z</time>
      </trkpt>
      <trkpt lat="44.18172" lon="5.73012">
        <ele>891.5</ele>
        <time>2021-05-28T10:29:06.236Z</time>
      </trkpt>
      <trkpt lat="44.1817" lon="5.72875">
        <ele>891</ele>
        <time>2021-05-28T10:29:31.582Z</time>
      </trkpt>
      <trkpt lat="44.1817" lon="5.72763">
        <ele>894.8</ele>
        <time>2021-05-28T10:30:09.955Z</time>
      </trkpt>
      <trkpt lat="44.18184" lon="5.72716">
        <ele>896.3</ele>
        <time>2021-05-28T10:30:26.229Z</time>
      </trkpt>
      <trkpt lat="44.18252" lon="5.72673">
        <ele>904.6</ele>
        <time>2021-05-28T10:31:26.805Z</time>
      </trkpt>
      <trkpt lat="44.183" lon="5.72615">
        <ele>909.7</ele>
        <time>2021-05-28T10:32:05.331Z</time>
      </trkpt>
      <trkpt lat="44.1826" lon="5.72568">
        <ele>906.5</ele>
        <time>2021-05-28T10:32:10.902Z</time>
      </trkpt>
      <trkpt lat="44.18223" lon="5.72525">
        <ele>906.8</ele>
        <time>2021-05-28T10:32:25.104Z</time>
      </trkpt>
      <trkpt lat="44.1819" lon="5.72488">
        <ele>904.8</ele>
        <time>2021-05-28T10:32:30.173Z</time>
      </trkpt>
      <trkpt lat="44.18189" lon="5.72413">
        <ele>907.8</ele>
        <time>2021-05-28T10:32:57.353Z</time>
      </trkpt>
      <trkpt lat="44.18212" lon="5.72364">
        <ele>908.3</ele>
        <time>2021-05-28T10:33:10.459Z</time>
      </trkpt>
      <trkpt lat="44.18272" lon="5.7233">
        <ele>916.9</ele>
        <time>2021-05-28T10:34:19.273Z</time>
      </trkpt>
      <trkpt lat="44.1826" lon="5.72405">
        <ele>920</ele>
        <time>2021-05-28T10:34:47.209Z</time>
      </trkpt>
      <trkpt lat="44.18286" lon="5.72458">
        <ele>923.3</ele>
        <time>2021-05-28T10:35:13.300Z</time>
      </trkpt>
      <trkpt lat="44.18307" lon="5.72448">
        <ele>927.7</ele>
        <time>2021-05-28T10:35:37.099Z</time>
      </trkpt>
      <trkpt lat="44.18367" lon="5.72368">
        <ele>939.2</ele>
        <time>2021-05-28T10:37:06.126Z</time>
      </trkpt>
      <trkpt lat="44.18389" lon="5.7236">
        <ele>943.5</ele>
        <time>2021-05-28T10:37:30.509Z</time>
      </trkpt>
      <trkpt lat="44.18424" lon="5.72276">
        <ele>951.7</ele>
        <time>2021-05-28T10:38:31.382Z</time>
      </trkpt>
      <trkpt lat="44.18484" lon="5.72185">
        <ele>963.3</ele>
        <time>2021-05-28T10:40:03.036Z</time>
      </trkpt>
      <trkpt lat="44.18476" lon="5.72083">
        <ele>968.1</ele>
        <time>2021-05-28T10:40:42.775Z</time>
      </trkpt>
      <trkpt lat="44.1847" lon="5.7198">
        <ele>975.2</ele>
        <time>2021-05-28T10:41:34.254Z</time>
      </trkpt>
      <trkpt lat="44.18504" lon="5.71855">
        <ele>992.4</ele>
        <time>2021-05-28T10:43:17.068Z</time>
      </trkpt>
      <trkpt lat="44.18534" lon="5.71727">
        <ele>1013.8</ele>
        <time>2021-05-28T10:45:00.629Z</time>
      </trkpt>
      <trkpt lat="44.18482" lon="5.71559">
        <ele>1022.4</ele>
        <time>2021-05-28T10:46:11.654Z</time>
      </trkpt>
      <trkpt lat="44.18411" lon="5.71422">
        <ele>1030.9</ele>
        <time>2021-05-28T10:47:19.535Z</time>
      </trkpt>
      <trkpt lat="44.18365" lon="5.71345">
        <ele>1042.8</ele>
        <time>2021-05-28T10:48:36.609Z</time>
      </trkpt>
      <trkpt lat="44.18405" lon="5.71302">
        <ele>1051.3</ele>
        <time>2021-05-28T10:49:30.774Z</time>
      </trkpt>
      <trkpt lat="44.18537" lon="5.71349">
        <ele>1069.3</ele>
        <time>2021-05-28T10:51:54.165Z</time>
      </trkpt>
      <trkpt lat="44.18491" lon="5.71285">
        <ele>1067.7</ele>
        <time>2021-05-28T10:52:03.899Z</time>
      </trkpt>
      <trkpt lat="44.18467" lon="5.71255">
        <ele>1069.1</ele>
        <time>2021-05-28T10:52:18.782Z</time>
      </trkpt>
      <trkpt lat="44.18464" lon="5.71186">
        <ele>1081.4</ele>
        <time>2021-05-28T10:53:11.943Z</time>
      </trkpt>
      <trkpt lat="44.18433" lon="5.71083">
        <ele>1090.5</ele>
        <time>2021-05-28T10:54:18.713Z</time>
      </trkpt>
      <trkpt lat="44.18457" lon="5.7101">
        <ele>1089</ele>
        <time>2021-05-28T10:54:27.205Z</time>
      </trkpt>
      <trkpt lat="44.18491" lon="5.70877">
        <ele>1080</ele>
        <time>2021-05-28T10:54:38.486Z</time>
      </trkpt>
      <trkpt lat="44.18516" lon="5.70774">
        <ele>1082.6</ele>
        <time>2021-05-28T10:55:09.700Z</time>
      </trkpt>
      <trkpt lat="44.185" lon="5.70641">
        <ele>1069.6</ele>
        <time>2021-05-28T10:55:20.474Z</time>
      </trkpt>
      <trkpt lat="44.18488" lon="5.70564">
        <ele>1068.1</ele>
        <time>2021-05-28T10:55:28.761Z</time>
      </trkpt>
      <trkpt lat="44.185" lon="5.70461">
        <ele>1069.7</ele>
        <time>2021-05-28T10:55:54.634Z</time>
      </trkpt>
      <trkpt lat="44.18571" lon="5.70401">
        <ele>1067.7</ele>
        <time>2021-05-28T10:56:07.145Z</time>
      </trkpt>
      <trkpt lat="44.18608" lon="5.70349">
        <ele>1062.9</ele>
        <time>2021-05-28T10:56:12.998Z</time>
      </trkpt>
      <trkpt lat="44.18648" lon="5.70289">
        <ele>1067</ele>
        <time>2021-05-28T10:56:45.814Z</time>
      </trkpt>
      <trkpt lat="44.18624" lon="5.70199">
        <ele>1054.3</ele>
        <time>2021-05-28T10:56:53.485Z</time>
      </trkpt>
      <trkpt lat="44.18633" lon="5.70156">
        <ele>1057.9</ele>
        <time>2021-05-28T10:57:19.808Z</time>
      </trkpt>
      <trkpt lat="44.18605" lon="5.70066">
        <ele>1046.8</ele>
        <time>2021-05-28T10:57:27.645Z</time>
      </trkpt>
      <trkpt lat="44.18577" lon="5.69984">
        <ele>1038.4</ele>
        <time>2021-05-28T10:57:34.901Z</time>
      </trkpt>
      <trkpt lat="44.18596" lon="5.69898">
        <ele>1041.2</ele>
        <time>2021-05-28T10:58:04.678Z</time>
      </trkpt>
      <trkpt lat="44.18617" lon="5.69813">
        <ele>1047</ele>
        <time>2021-05-28T10:58:47.140Z</time>
      </trkpt>
      <trkpt lat="44.18611" lon="5.69667">
        <ele>1046.9</ele>
        <time>2021-05-28T10:59:15.877Z</time>
      </trkpt>
      <trkpt lat="44.18614" lon="5.69551">
        <ele>1048.2</ele>
        <time>2021-05-28T10:59:42.883Z</time>
      </trkpt>
      <trkpt lat="44.18634" lon="5.69459">
        <ele>1053.9</ele>
        <time>2021-05-28T11:00:25.532Z</time>
      </trkpt>
      <trkpt lat="44.18627" lon="5.69432">
        <ele>1048.5</ele>
        <time>2021-05-28T11:00:27.825Z</time>
      </trkpt>
      <trkpt lat="44.18626" lon="5.69405">
        <ele>1046</ele>
        <time>2021-05-28T11:00:29.985Z</time>
      </trkpt>
      <trkpt lat="44.18636" lon="5.69351">
        <ele>1045</ele>
        <time>2021-05-28T11:00:35.951Z</time>
      </trkpt>
      <trkpt lat="44.18636" lon="5.6929">
        <ele>1044.8</ele>
        <time>2021-05-28T11:00:47.317Z</time>
      </trkpt>
      <trkpt lat="44.1863" lon="5.69265">
        <ele>1045.3</ele>
        <time>2021-05-28T11:00:54.253Z</time>
      </trkpt>
      <trkpt lat="44.18613" lon="5.69254">
        <ele>1045.3</ele>
        <time>2021-05-28T11:00:59.464Z</time>
      </trkpt>
      <trkpt lat="44.18588" lon="5.69248">
        <ele>1045.7</ele>
        <time>2021-05-28T11:01:07.708Z</time>
      </trkpt>
      <trkpt lat="44.18554" lon="5.69269">
        <ele>1046.9</ele>
        <time>2021-05-28T11:01:22.386Z</time>
      </trkpt>
      <trkpt lat="44.1854" lon="5.69289">
        <ele>1044.2</ele>
        <time>2021-05-28T11:01:24.619Z</time>
      </trkpt>
      <trkpt lat="44.18496" lon="5.693">
        <ele>1049.3</ele>
        <time>2021-05-28T11:02:02.084Z</time>
      </trkpt>
      <trkpt lat="44.18478" lon="5.69291">
        <ele>1062.1</ele>
        <time>2021-05-28T11:02:22.591Z</time>
      </trkpt>
      <trkpt lat="44.18446" lon="5.69344">
        <ele>1055.7</ele>
        <time>2021-05-28T11:02:28.127Z</time>
      </trkpt>
      <trkpt lat="44.18439" lon="5.69368">
        <ele>1051.9</ele>
        <time>2021-05-28T11:02:30.197Z</time>
      </trkpt>
      <trkpt lat="44.18425" lon="5.69382">
        <ele>1053.6</ele>
        <time>2021-05-28T11:02:42.495Z</time>
      </trkpt>
      <trkpt lat="44.1839" lon="5.69402">
        <ele>1054.1</ele>
        <time>2021-05-28T11:02:54.460Z</time>
      </trkpt>
      <trkpt lat="44.18334" lon="5.69411">
        <ele>1054.5</ele>
        <time>2021-05-28T11:03:11.223Z</time>
      </trkpt>
      <trkpt lat="44.18295" lon="5.69404">
        <ele>1055.8</ele>
        <time>2021-05-28T11:03:26.905Z</time>
      </trkpt>
      <trkpt lat="44.18278" lon="5.69395">
        <ele>1059.3</ele>
        <time>2021-05-28T11:03:46.406Z</time>
      </trkpt>
      <trkpt lat="44.18264" lon="5.69379">
        <ele>1066.2</ele>
        <time>2021-05-28T11:04:05.819Z</time>
      </trkpt>
      <trkpt lat="44.18247" lon="5.6937">
        <ele>1067.6</ele>
        <time>2021-05-28T11:04:16.559Z</time>
      </trkpt>
      <trkpt lat="44.18229" lon="5.69371">
        <ele>1059.1</ele>
        <time>2021-05-28T11:04:18.566Z</time>
      </trkpt>
      <trkpt lat="44.18211" lon="5.69378">
        <ele>1049.4</ele>
        <time>2021-05-28T11:04:20.648Z</time>
      </trkpt>
      <trkpt lat="44.18206" lon="5.69351">
        <ele>1053.4</ele>
        <time>2021-05-28T11:04:42.094Z</time>
      </trkpt>
      <trkpt lat="44.18192" lon="5.69367">
        <ele>1043.3</ele>
        <time>2021-05-28T11:04:44.111Z</time>
      </trkpt>
      <trkpt lat="44.18176" lon="5.69413">
        <ele>1033.7</ele>
        <time>2021-05-28T11:04:48.195Z</time>
      </trkpt>
      <trkpt lat="44.1816" lon="5.69427">
        <ele>1025.8</ele>
        <time>2021-05-28T11:04:50.300Z</time>
      </trkpt>
      <trkpt lat="44.18139" lon="5.69469">
        <ele>1008.9</ele>
        <time>2021-05-28T11:04:54.391Z</time>
      </trkpt>
      <trkpt lat="44.18133" lon="5.69493">
        <ele>1003.9</ele>
        <time>2021-05-28T11:04:56.421Z</time>
      </trkpt>
      <trkpt lat="44.18129" lon="5.69466">
        <ele>1006.1</ele>
        <time>2021-05-28T11:05:12.481Z</time>
      </trkpt>
      <trkpt lat="44.18136" lon="5.69439">
        <ele>1012.2</ele>
        <time>2021-05-28T11:05:34.562Z</time>
      </trkpt>
      <trkpt lat="44.18142" lon="5.69359">
        <ele>1015.1</ele>
        <time>2021-05-28T11:06:02.656Z</time>
      </trkpt>
      <trkpt lat="44.1814" lon="5.69334">
        <ele>1012.2</ele>
        <time>2021-05-28T11:06:04.666Z</time>
      </trkpt>
      <trkpt lat="44.18119" lon="5.69291">
        <ele>998.2</ele>
        <time>2021-05-28T11:06:08.823Z</time>
      </trkpt>
      <trkpt lat="44.1811" lon="5.69238">
        <ele>992.2</ele>
        <time>2021-05-28T11:06:13.175Z</time>
      </trkpt>
      <trkpt lat="44.18106" lon="5.69156">
        <ele>987.2</ele>
        <time>2021-05-28T11:06:19.741Z</time>
      </trkpt>
      <trkpt lat="44.18123" lon="5.69028">
        <ele>995.9</ele>
        <time>2021-05-28T11:07:23.042Z</time>
      </trkpt>
      <trkpt lat="44.18111" lon="5.69009">
        <ele>986.6</ele>
        <time>2021-05-28T11:07:25.065Z</time>
      </trkpt>
      <trkpt lat="44.18104" lon="5.68983">
        <ele>980.4</ele>
        <time>2021-05-28T11:07:27.284Z</time>
      </trkpt>
      <trkpt lat="44.18113" lon="5.6893">
        <ele>983.4</ele>
        <time>2021-05-28T11:07:50.319Z</time>
      </trkpt>
      <trkpt lat="44.1811" lon="5.68875">
        <ele>979.4</ele>
        <time>2021-05-28T11:07:54.727Z</time>
      </trkpt>
      <trkpt lat="44.18102" lon="5.68825">
        <ele>972.8</ele>
        <time>2021-05-28T11:07:58.820Z</time>
      </trkpt>
      <trkpt lat="44.18082" lon="5.68748">
        <ele>957</ele>
        <time>2021-05-28T11:08:05.363Z</time>
      </trkpt>
      <trkpt lat="44.18072" lon="5.68727">
        <ele>949.2</ele>
        <time>2021-05-28T11:08:07.377Z</time>
      </trkpt>
      <trkpt lat="44.18066" lon="5.68643">
        <ele>938.2</ele>
        <time>2021-05-28T11:08:14.122Z</time>
      </trkpt>
      <trkpt lat="44.18068" lon="5.68618">
        <ele>937.2</ele>
        <time>2021-05-28T11:08:16.135Z</time>
      </trkpt>
      <trkpt lat="44.18064" lon="5.68561">
        <ele>929.8</ele>
        <time>2021-05-28T11:08:20.711Z</time>
      </trkpt>
      <trkpt lat="44.18072" lon="5.6851">
        <ele>929.5</ele>
        <time>2021-05-28T11:08:27.590Z</time>
      </trkpt>
      <trkpt lat="44.18058" lon="5.68494">
        <ele>921.8</ele>
        <time>2021-05-28T11:08:29.607Z</time>
      </trkpt>
      <trkpt lat="44.18041" lon="5.68484">
        <ele>913.9</ele>
        <time>2021-05-28T11:08:31.663Z</time>
      </trkpt>
      <trkpt lat="44.18016" lon="5.68445">
        <ele>903.6</ele>
        <time>2021-05-28T11:08:35.842Z</time>
      </trkpt>
      <trkpt lat="44.18006" lon="5.68392">
        <ele>900.1</ele>
        <time>2021-05-28T11:08:40.221Z</time>
      </trkpt>
      <trkpt lat="44.17947" lon="5.68317">
        <ele>875.4</ele>
        <time>2021-05-28T11:08:49.116Z</time>
      </trkpt>
      <trkpt lat="44.17951" lon="5.68287">
        <ele>873.3</ele>
        <time>2021-05-28T11:08:51.554Z</time>
      </trkpt>
      <trkpt lat="44.17971" lon="5.68242">
        <ele>874.9</ele>
        <time>2021-05-28T11:09:08.747Z</time>
      </trkpt>
      <trkpt lat="44.1798" lon="5.68192">
        <ele>872.1</ele>
        <time>2021-05-28T11:09:12.866Z</time>
      </trkpt>
      <trkpt lat="44.17955" lon="5.68152">
        <ele>859.8</ele>
        <time>2021-05-28T11:09:17.106Z</time>
      </trkpt>
      <trkpt lat="44.17949" lon="5.68127">
        <ele>856.6</ele>
        <time>2021-05-28T11:09:19.212Z</time>
      </trkpt>
      <trkpt lat="44.17949" lon="5.68127">
        <ele>856.6</ele>
        <time>2021-05-28T11:09:19.212Z</time>
      </trkpt>
      <trkpt lat="44.17923" lon="5.68163">
        <ele>849.1</ele>
        <time>2021-05-28T11:09:23.294Z</time>
      </trkpt>
      <trkpt lat="44.17876" lon="5.68212">
        <ele>841.9</ele>
        <time>2021-05-28T11:09:29.833Z</time>
      </trkpt>
      <trkpt lat="44.17847" lon="5.68249">
        <ele>834.3</ele>
        <time>2021-05-28T11:09:34.212Z</time>
      </trkpt>
      <trkpt lat="44.17813" lon="5.68208">
        <ele>823.7</ele>
        <time>2021-05-28T11:09:39.220Z</time>
      </trkpt>
      <trkpt lat="44.17805" lon="5.68158">
        <ele>820.3</ele>
        <time>2021-05-28T11:09:43.314Z</time>
      </trkpt>
      <trkpt lat="44.17839" lon="5.68141">
        <ele>827.7</ele>
        <time>2021-05-28T11:10:22.050Z</time>
      </trkpt>
      <trkpt lat="44.17876" lon="5.68126">
        <ele>834.1</ele>
        <time>2021-05-28T11:11:03.374Z</time>
      </trkpt>
      <trkpt lat="44.17882" lon="5.68073">
        <ele>829.9</ele>
        <time>2021-05-28T11:11:07.661Z</time>
      </trkpt>
      <trkpt lat="44.17868" lon="5.68023">
        <ele>821.4</ele>
        <time>2021-05-28T11:11:11.950Z</time>
      </trkpt>
      <trkpt lat="44.17879" lon="5.67987">
        <ele>825.4</ele>
        <time>2021-05-28T11:11:42.046Z</time>
      </trkpt>
      <trkpt lat="44.17867" lon="5.67922">
        <ele>818</ele>
        <time>2021-05-28T11:11:47.409Z</time>
      </trkpt>
      <trkpt lat="44.17867" lon="5.67839">
        <ele>816.8</ele>
        <time>2021-05-28T11:11:56.792Z</time>
      </trkpt>
      <trkpt lat="44.1785" lon="5.67761">
        <ele>811</ele>
        <time>2021-05-28T11:12:03.306Z</time>
      </trkpt>
      <trkpt lat="44.17813" lon="5.67706">
        <ele>800</ele>
        <time>2021-05-28T11:12:09.332Z</time>
      </trkpt>
      <trkpt lat="44.17803" lon="5.67648">
        <ele>795.5</ele>
        <time>2021-05-28T11:12:14.098Z</time>
      </trkpt>
      <trkpt lat="44.1783" lon="5.67553">
        <ele>790.2</ele>
        <time>2021-05-28T11:12:22.263Z</time>
      </trkpt>
      <trkpt lat="44.17847" lon="5.67437">
        <ele>780.6</ele>
        <time>2021-05-28T11:12:31.723Z</time>
      </trkpt>
      <trkpt lat="44.1783" lon="5.67397">
        <ele>770.8</ele>
        <time>2021-05-28T11:12:35.439Z</time>
      </trkpt>
      <trkpt lat="44.17834" lon="5.67339">
        <ele>768.6</ele>
        <time>2021-05-28T11:12:40.211Z</time>
      </trkpt>
      <trkpt lat="44.17823" lon="5.67309">
        <ele>763.8</ele>
        <time>2021-05-28T11:12:42.903Z</time>
      </trkpt>
      <trkpt lat="44.17839" lon="5.67251">
        <ele>764.8</ele>
        <time>2021-05-28T11:12:58.500Z</time>
      </trkpt>
      <trkpt lat="44.1782" lon="5.67204">
        <ele>758.4</ele>
        <time>2021-05-28T11:13:02.811Z</time>
      </trkpt>
      <trkpt lat="44.17834" lon="5.6709">
        <ele>762.2</ele>
        <time>2021-05-28T11:13:42.061Z</time>
      </trkpt>
      <trkpt lat="44.17808" lon="5.66995">
        <ele>752.6</ele>
        <time>2021-05-28T11:13:50.186Z</time>
      </trkpt>
      <trkpt lat="44.17822" lon="5.66942">
        <ele>758.6</ele>
        <time>2021-05-28T11:14:33.627Z</time>
      </trkpt>
      <trkpt lat="44.17794" lon="5.66907">
        <ele>747.8</ele>
        <time>2021-05-28T11:14:37.816Z</time>
      </trkpt>
      <trkpt lat="44.17786" lon="5.66772">
        <ele>739.3</ele>
        <time>2021-05-28T11:14:48.640Z</time>
      </trkpt>
      <trkpt lat="44.178" lon="5.66738">
        <ele>743.5</ele>
        <time>2021-05-28T11:15:18.794Z</time>
      </trkpt>
      <trkpt lat="44.17763" lon="5.66616">
        <ele>734.9</ele>
        <time>2021-05-28T11:15:29.378Z</time>
      </trkpt>
      <trkpt lat="44.1776" lon="5.66568">
        <ele>735</ele>
        <time>2021-05-28T11:15:39.248Z</time>
      </trkpt>
      <trkpt lat="44.17768" lon="5.66489">
        <ele>737.7</ele>
        <time>2021-05-28T11:16:06.563Z</time>
      </trkpt>
      <trkpt lat="44.1779" lon="5.66429">
        <ele>740.9</ele>
        <time>2021-05-28T11:16:32.851Z</time>
      </trkpt>
      <trkpt lat="44.17802" lon="5.66401">
        <ele>743.6</ele>
        <time>2021-05-28T11:16:52.756Z</time>
      </trkpt>
      <trkpt lat="44.17777" lon="5.66367">
        <ele>738.9</ele>
        <time>2021-05-28T11:16:56.647Z</time>
      </trkpt>
      <trkpt lat="44.17779" lon="5.66337">
        <ele>740.4</ele>
        <time>2021-05-28T11:17:08.684Z</time>
      </trkpt>
      <trkpt lat="44.17779" lon="5.66272">
        <ele>745.5</ele>
        <time>2021-05-28T11:17:45.789Z</time>
      </trkpt>
      <trkpt lat="44.17777" lon="5.66208">
        <ele>751.1</ele>
        <time>2021-05-28T11:18:28.015Z</time>
      </trkpt>
      <trkpt lat="44.1775" lon="5.66186">
        <ele>746.5</ele>
        <time>2021-05-28T11:18:31.499Z</time>
      </trkpt>
      <trkpt lat="44.17723" lon="5.66135">
        <ele>746.5</ele>
        <time>2021-05-28T11:18:44.140Z</time>
      </trkpt>
      <trkpt lat="44.17699" lon="5.66053">
        <ele>746.9</ele>
        <time>2021-05-28T11:19:02.882Z</time>
      </trkpt>
      <trkpt lat="44.17686" lon="5.65976">
        <ele>748.9</ele>
        <time>2021-05-28T11:19:26.178Z</time>
      </trkpt>
      <trkpt lat="44.17656" lon="5.65916">
        <ele>744</ele>
        <time>2021-05-28T11:19:32.023Z</time>
      </trkpt>
      <trkpt lat="44.17614" lon="5.65856">
        <ele>739.7</ele>
        <time>2021-05-28T11:19:38.722Z</time>
      </trkpt>
      <trkpt lat="44.17616" lon="5.65757">
        <ele>747.5</ele>
        <time>2021-05-28T11:20:35.510Z</time>
      </trkpt>
      <trkpt lat="44.1761" lon="5.65652">
        <ele>748.1</ele>
        <time>2021-05-28T11:20:58.163Z</time>
      </trkpt>
      <trkpt lat="44.17583" lon="5.65485">
        <ele>746</ele>
        <time>2021-05-28T11:21:18.234Z</time>
      </trkpt>
      <trkpt lat="44.17585" lon="5.65431">
        <ele>746.5</ele>
        <time>2021-05-28T11:21:30.461Z</time>
      </trkpt>
      <trkpt lat="44.17577" lon="5.65376">
        <ele>744.6</ele>
        <time>2021-05-28T11:21:35.280Z</time>
      </trkpt>
      <trkpt lat="44.17588" lon="5.65286">
        <ele>747.5</ele>
        <time>2021-05-28T11:22:05.913Z</time>
      </trkpt>
      <trkpt lat="44.17592" lon="5.65207">
        <ele>747.2</ele>
        <time>2021-05-28T11:22:20.523Z</time>
      </trkpt>
      <trkpt lat="44.17611" lon="5.65157">
        <ele>751.5</ele>
        <time>2021-05-28T11:22:51.674Z</time>
      </trkpt>
      <trkpt lat="44.17603" lon="5.65093">
        <ele>748</ele>
        <time>2021-05-28T11:22:56.865Z</time>
      </trkpt>
      <trkpt lat="44.17583" lon="5.65029">
        <ele>741.3</ele>
        <time>2021-05-28T11:23:02.444Z</time>
      </trkpt>
      <trkpt lat="44.17609" lon="5.64949">
        <ele>743.3</ele>
        <time>2021-05-28T11:23:27.140Z</time>
      </trkpt>
      <trkpt lat="44.17626" lon="5.649">
        <ele>744</ele>
        <time>2021-05-28T11:23:40.128Z</time>
      </trkpt>
      <trkpt lat="44.17617" lon="5.64816">
        <ele>739.6</ele>
        <time>2021-05-28T11:23:46.914Z</time>
      </trkpt>
      <trkpt lat="44.17625" lon="5.64709">
        <ele>742</ele>
        <time>2021-05-28T11:24:16.915Z</time>
      </trkpt>
      <trkpt lat="44.17592" lon="5.64576">
        <ele>737.8</ele>
        <time>2021-05-28T11:24:29.632Z</time>
      </trkpt>
      <trkpt lat="44.17565" lon="5.64507">
        <ele>736.4</ele>
        <time>2021-05-28T11:24:38.057Z</time>
      </trkpt>
      <trkpt lat="44.17557" lon="5.64385">
        <ele>738.2</ele>
        <time>2021-05-28T11:25:08.130Z</time>
      </trkpt>
      <trkpt lat="44.17546" lon="5.64252">
        <ele>737.6</ele>
        <time>2021-05-28T11:25:32.495Z</time>
      </trkpt>
      <trkpt lat="44.17534" lon="5.64117">
        <ele>738</ele>
        <time>2021-05-28T11:26:00.680Z</time>
      </trkpt>
      <trkpt lat="44.17534" lon="5.64052">
        <ele>739.7</ele>
        <time>2021-05-28T11:26:20.143Z</time>
      </trkpt>
      <trkpt lat="44.17546" lon="5.63921">
        <ele>747</ele>
        <time>2021-05-28T11:27:16.121Z</time>
      </trkpt>
      <trkpt lat="44.17562" lon="5.63846">
        <ele>749.5</ele>
        <time>2021-05-28T11:27:42.464Z</time>
      </trkpt>
      <trkpt lat="44.17589" lon="5.63814">
        <ele>748.8</ele>
        <time>2021-05-28T11:27:48.076Z</time>
      </trkpt>
      <trkpt lat="44.17616" lon="5.63752">
        <ele>750.6</ele>
        <time>2021-05-28T11:28:09.252Z</time>
      </trkpt>
      <trkpt lat="44.17654" lon="5.63703">
        <ele>751.6</ele>
        <time>2021-05-28T11:28:26.737Z</time>
      </trkpt>
      <trkpt lat="44.17668" lon="5.63634">
        <ele>751.9</ele>
        <time>2021-05-28T11:28:41.844Z</time>
      </trkpt>
      <trkpt lat="44.17659" lon="5.63542">
        <ele>756.3</ele>
        <time>2021-05-28T11:29:18.030Z</time>
      </trkpt>
      <trkpt lat="44.17643" lon="5.63458">
        <ele>764.6</ele>
        <time>2021-05-28T11:30:24.611Z</time>
      </trkpt>
      <trkpt lat="44.17669" lon="5.63391">
        <ele>759.3</ele>
        <time>2021-05-28T11:30:30.698Z</time>
      </trkpt>
      <trkpt lat="44.17679" lon="5.63325">
        <ele>763.5</ele>
        <time>2021-05-28T11:31:01.696Z</time>
      </trkpt>
      <trkpt lat="44.17734" lon="5.63278">
        <ele>768.1</ele>
        <time>2021-05-28T11:31:38.147Z</time>
      </trkpt>
      <trkpt lat="44.17768" lon="5.63245">
        <ele>771.5</ele>
        <time>2021-05-28T11:32:03.646Z</time>
      </trkpt>
      <trkpt lat="44.17783" lon="5.63318">
        <ele>773.1</ele>
        <time>2021-05-28T11:32:24.363Z</time>
      </trkpt>
      <trkpt lat="44.17833" lon="5.63385">
        <ele>775.7</ele>
        <time>2021-05-28T11:32:53.729Z</time>
      </trkpt>
      <trkpt lat="44.17825" lon="5.63293">
        <ele>780.2</ele>
        <time>2021-05-28T11:33:30.283Z</time>
      </trkpt>
      <trkpt lat="44.1788" lon="5.63291">
        <ele>786.8</ele>
        <time>2021-05-28T11:34:19.669Z</time>
      </trkpt>
      <trkpt lat="44.17933" lon="5.63312">
        <ele>793.9</ele>
        <time>2021-05-28T11:35:15.095Z</time>
      </trkpt>
      <trkpt lat="44.17979" lon="5.63329">
        <ele>800.3</ele>
        <time>2021-05-28T11:36:06.131Z</time>
      </trkpt>
      <trkpt lat="44.18006" lon="5.63338">
        <ele>804.1</ele>
        <time>2021-05-28T11:36:35.902Z</time>
      </trkpt>
      <trkpt lat="44.18046" lon="5.63336">
        <ele>809.4</ele>
        <time>2021-05-28T11:37:18.205Z</time>
      </trkpt>
      <trkpt lat="44.18046" lon="5.63385">
        <ele>814.5</ele>
        <time>2021-05-28T11:37:55.891Z</time>
      </trkpt>
      <trkpt lat="44.18088" lon="5.63409">
        <ele>824.6</ele>
        <time>2021-05-28T11:38:44.569Z</time>
      </trkpt>
      <trkpt lat="44.18116" lon="5.63451">
        <ele>833.7</ele>
        <time>2021-05-28T11:39:28.672Z</time>
      </trkpt>
      <trkpt lat="44.18083" lon="5.63488">
        <ele>834.3</ele>
        <time>2021-05-28T11:39:42.202Z</time>
      </trkpt>
    </trkseg>
  </trk>
</gpx>